
Distance (Route):
Temperature : -48.9°C
Humidity : 1.0%
Pressure : 56.0hPa| Receiver | Frames | First received | Last received |
|---|---|---|---|
| DL1XH-west | 200 | 2026-09-03 00:21:36 | 2026-09-03 00:57:17 |
| DL1XH1-15 | 163 | 2026-09-03 00:22:26 | 2026-09-03 00:57:00 |
| DM0DOS-11 | 67 | 2026-09-03 00:37:51 | 2026-09-03 00:52:39 |
| AA1-15 | 45 | 2026-09-03 00:41:11 | 2026-09-03 00:52:42 |
| DJ2DS-15 | 22 | 2026-09-03 00:16:47 | 2026-09-03 00:59:27 |
| Receiver | Date | Latitude | Longitude | Direction | Speed | Altitude | Climb | Temperature | Humidity | Pressure | Voltage | Killtimer | Uptime | BKT | XDATA |
|---|---|---|---|---|---|---|---|---|---|---|---|---|---|---|---|
| DJ2DS-15 | 2026-09-03 00:59:27 | 58.67412 | 7.17391 | 88° | 31km/h | 20205m | -25.8m/s | -48.9°C | 1.0% | 56.0hPa | 2.4V | 00:00:00 | 00:00:00 | 00:00:00 | |
| DJ2DS-15 | 2026-09-03 00:58:15 | 58.67443 | 7.16699 | 66° | 13km/h | 21428m | -26.2m/s | -49.1°C | 1.0% | 46.5hPa | 2.4V | 00:00:00 | 00:00:00 | 00:00:00 | |
| DJ2DS-15 | 2026-09-03 00:57:39 | 58.67414 | 7.16289 | 96° | 18km/h | 22215m | -17.7m/s | -49.5°C | 1.0% | 41.2hPa | 2.4V | 00:00:00 | 00:00:00 | 00:00:00 | |
| DL1XH-west | 2026-09-03 00:57:17 | 58.67429 | 7.16184 | 79° | 13km/h | 22699m | -19.4m/s | -51.4°C | 0.8% | 38.3hPa | 2.4V | 08:25:28 | 02:17:47 | 00:00:00 | |
| DL1XH-west | 2026-09-03 00:57:04 | 58.67417 | 7.16062 | 88° | 31km/h | 22993m | -21.7m/s | -50.9°C | 0.8% | 36.6hPa | 2.4V | 08:25:28 | 02:17:34 | 00:00:00 | |
| DL1XH1-15 | 2026-09-03 00:57:00 | 58.67419 | 7.15983 | 95° | 33km/h | 23081m | -20.6m/s | -50.7°C | 4% | 36.1hPa | 2.4V | 08:24:50 | 02:17:29 | 00:00:00 | |
| DL1XH1-15 | 2026-09-03 00:56:55 | 58.67438 | 7.15829 | 111° | 31km/h | 23304m | -20.3m/s | -49.9°C | 3.7% | 34.9hPa | 2.5V | 08:25:00 | 02:17:19 | 00:00:00 | |
| DL1XH-west | 2026-09-03 00:56:54 | 58.67427 | 7.15891 | 104° | 37km/h | 23220m | -21.4m/s | -50.3°C | 0.6% | 35.3hPa | 2.5V | 08:25:28 | 02:17:23 | 00:00:00 | |
| DL1XH1-15 | 2026-09-03 00:56:44 | 58.67476 | 7.15775 | 187° | 13km/h | 23530m | -19.6m/s | -49.2°C | 3.4% | 33.7hPa | 2.5V | 08:25:10 | 02:17:09 | 00:00:00 | |
| DL1XH-west | 2026-09-03 00:56:42 | 58.67465 | 7.15777 | 169° | 16km/h | 23463m | -24.5m/s | -49.3°C | 0.4% | 34hPa | 2.5V | 08:25:28 | 02:17:12 | 00:00:00 | |
| DL1XH1-15 | 2026-09-03 00:56:34 | 58.67506 | 7.15791 | 207° | 4km/h | 23732m | -21.5m/s | -50.2°C | 3.7% | 32.6hPa | 2.5V | 08:25:20 | 02:16:59 | 00:00:00 | |
| DL1XH-west | 2026-09-03 00:56:31 | 58.67504 | 7.15788 | 211° | 5km/h | 23688m | -23.6m/s | -50°C | 0.6% | 32.9hPa | 2.4V | 08:25:28 | 02:17:01 | 00:00:00 | |
| DJ2DS-15 | 2026-09-03 00:56:27 | 58.67508 | 7.15792 | 188° | 2km/h | 23777m | -23.4m/s | -50.2°C | 1.0% | 32.4hPa | 2.5V | 00:00:00 | 00:00:00 | 00:00:00 | |
| DL1XH1-15 | 2026-09-03 00:56:24 | 58.67498 | 7.15785 | 52° | 15km/h | 23948m | -24m/s | -50.5°C | 3.8% | 31.6hPa | 2.5V | 08:25:30 | 02:16:49 | 00:00:00 | |
| DL1XH-west | 2026-09-03 00:56:20 | 58.67500 | 7.15790 | 46° | 11km/h | 23925m | -23.3m/s | -50.5°C | 0.6% | 31.7hPa | 2.5V | 08:26:19 | 02:16:50 | 00:00:00 | |
| DL1XH1-15 | 2026-09-03 00:56:14 | 58.67476 | 7.15699 | 90° | 29km/h | 24178m | -25.8m/s | -50.3°C | 3.8% | 30.5hPa | 2.4V | 08:25:40 | 02:16:39 | 00:00:00 | |
| DL1XH-west | 2026-09-03 00:56:09 | 58.67476 | 7.15699 | 90° | 29km/h | 24178m | -25.8m/s | -50.3°C | 0.6% | 30.5hPa | 2.4V | 08:26:19 | 02:16:39 | 00:00:00 | |
| DL1XH-west | 2026-09-03 00:55:59 | 58.67505 | 7.15588 | 120° | 26km/h | 24416m | -25.4m/s | -50.4°C | 0.6% | 29.4hPa | 2.5V | 08:26:19 | 02:16:29 | 00:00:00 | |
| DJ2DS-15 | 2026-09-03 00:55:51 | 58.67537 | 7.15519 | 150° | 22km/h | 24614m | -26.6m/s | -50.1°C | 1.0% | 28.5hPa | 2.4V | 00:00:00 | 00:00:00 | 00:00:00 | |
| DL1XH1-15 | 2026-09-03 00:55:39 | 58.67555 | 7.15481 | 22° | 15km/h | 25011m | -24.8m/s | -50.8°C | 4% | 26.8hPa | 2.4V | 08:26:15 | 02:16:04 | 00:00:00 | |
| DL1XH-west | 2026-09-03 00:55:39 | 58.67565 | 7.15485 | 31° | 4km/h | 24898m | -23.2m/s | -50.6°C | 0.7% | 27.3hPa | 2.5V | 08:26:19 | 02:16:09 | 00:00:00 | |
| DL1XH1-15 | 2026-09-03 00:55:29 | 58.67519 | 7.15396 | 79° | 27km/h | 25264m | -23.1m/s | -50°C | 3.8% | 25.8hPa | 2.5V | 08:26:25 | 02:15:54 | 00:00:00 | |
| DL1XH-west | 2026-09-03 00:55:28 | 58.67530 | 7.15443 | 51° | 26km/h | 25161m | -24.8m/s | -50.5°C | 0.8% | 26.2hPa | 2.4V | 08:27:10 | 02:15:58 | 00:00:00 | |
| DL1XH1-15 | 2026-09-03 00:55:19 | 58.67519 | 7.15257 | 101° | 27km/h | 25489m | -21.1m/s | -49.6°C | 3.8% | 24.9hPa | 2.4V | 08:26:35 | 02:15:44 | 00:00:00 | |
| DL1XH-west | 2026-09-03 00:55:17 | 58.67515 | 7.15296 | 100° | 29km/h | 25426m | -21.3m/s | -49.5°C | 0.6% | 25.2hPa | 2.5V | 08:27:10 | 02:15:47 | 00:00:00 | |
| DL1XH-west | 2026-09-03 00:55:06 | 58.67524 | 7.15170 | 98° | 24km/h | 25693m | -26.2m/s | -49.4°C | 0.6% | 24.2hPa | 2.4V | 08:27:10 | 02:15:36 | 00:00:00 | |
| DL1XH1-15 | 2026-09-03 00:54:59 | 58.67539 | 7.15038 | 121° | 22km/h | 25976m | -27.1m/s | -48.7°C | 3.5% | 23.1hPa | 2.5V | 08:26:54 | 02:15:25 | 00:00:00 | |
| DL1XH-west | 2026-09-03 00:54:56 | 58.67536 | 7.15048 | 120° | 24km/h | 25948m | -28.9m/s | -48.8°C | 0.4% | 23.2hPa | 2.5V | 08:27:10 | 02:15:26 | 00:00:00 | |
| DL1XH1-15 | 2026-09-03 00:54:49 | 58.67579 | 7.14960 | 143° | 16km/h | 26270m | -28.2m/s | -48.5°C | 3.4% | 22.1hPa | 2.5V | 08:27:05 | 02:15:14 | 00:00:00 | |
| DL1XH-west | 2026-09-03 00:54:45 | 58.67576 | 7.14965 | 142° | 16km/h | 26242m | -29.1m/s | -48.7°C | 0.4% | 22.2hPa | 2.4V | 08:27:10 | 02:15:15 | 00:00:00 | |
| DL1XH1-15 | 2026-09-03 00:54:39 | 58.67612 | 7.14936 | 164° | 11km/h | 26530m | -27.4m/s | -48.7°C | 3.4% | 21.2hPa | 2.5V | 08:27:15 | 02:15:04 | 00:00:00 | |
| DL1XH-west | 2026-09-03 00:54:35 | 58.67610 | 7.14937 | 169° | 11km/h | 26502m | -28.4m/s | -48.7°C | 0.4% | 21.4hPa | 2.5V | 08:28:01 | 02:15:05 | 00:00:00 | |
| DL1XH1-15 | 2026-09-03 00:54:24 | 58.67644 | 7.14920 | 138° | 7km/h | 26828m | -26.2m/s | -49.9°C | 3.8% | 20.3hPa | 2.4V | 08:27:27 | 02:14:52 | 00:00:00 | |
| DL1XH-west | 2026-09-03 00:54:24 | 58.67641 | 7.14925 | 144° | 7km/h | 26773m | -28.4m/s | -49.8°C | 0.7% | 20.5hPa | 2.4V | 08:28:01 | 02:14:54 | 00:00:00 | |
| DL1XH1-15 | 2026-09-03 00:54:14 | 58.67653 | 7.14884 | 112° | 7km/h | 27117m | -32.4m/s | -49.2°C | 3.7% | 19.4hPa | 2.5V | 08:27:37 | 02:14:42 | 00:00:00 | |
| DL1XH-west | 2026-09-03 00:54:13 | 58.67652 | 7.14887 | 118° | 5km/h | 27085m | -31.5m/s | -49.4°C | 0.5% | 19.5hPa | 2.5V | 08:28:01 | 02:14:43 | 00:00:00 | |
| DL1XH1-15 | 2026-09-03 00:54:03 | 58.67666 | 7.14818 | 141° | 18km/h | 27417m | -31m/s | -48.9°C | 3.6% | 18.6hPa | 2.4V | 08:27:47 | 02:14:32 | 00:00:00 | |
| DL1XH-west | 2026-09-03 00:54:02 | 58.67666 | 7.14818 | 141° | 18km/h | 27417m | -31m/s | -48.9°C | 0.5% | 18.6hPa | 2.4V | 08:28:01 | 02:14:32 | 00:00:00 | |
| DL1XH1-15 | 2026-09-03 00:53:58 | 58.67708 | 7.14762 | 165° | 13km/h | 27676m | -23.1m/s | -48.9°C | 3.6% | 17.8hPa | 2.5V | 08:27:57 | 02:14:22 | 00:00:00 | |
| DL1XH-west | 2026-09-03 00:53:52 | 58.67711 | 7.14761 | 171° | 11km/h | 27698m | -22.4m/s | -48.8°C | 0.6% | 17.8hPa | 2.5V | 08:28:01 | 02:14:21 | 00:00:00 | |
| DL1XH1-15 | 2026-09-03 00:53:47 | 58.67723 | 7.14761 | 355° | 7km/h | 27958m | -24.5m/s | -48.9°C | 3.8% | 17hPa | 2.4V | 08:28:08 | 02:14:11 | 00:00:00 | |
| DL1XH-west | 2026-09-03 00:53:42 | 58.67723 | 7.14761 | 356° | 7km/h | 27958m | -24.5m/s | -48.9°C | 0.6% | 17hPa | 2.4V | 08:28:52 | 02:14:11 | 00:00:00 | |
| DL1XH1-15 | 2026-09-03 00:53:36 | 58.67698 | 7.14747 | 41° | 22km/h | 28225m | -22.5m/s | -48.2°C | 3.6% | 16.4hPa | 2.5V | 08:28:18 | 02:14:01 | 00:00:00 | |
| DL1XH-west | 2026-09-03 00:53:30 | 58.67694 | 7.14740 | 43° | 22km/h | 28249m | -25.8m/s | -48.1°C | 0.5% | 16.3hPa | 2.5V | 08:28:52 | 02:14:00 | 00:00:00 | |
| DJ2DS-15 | 2026-09-03 00:53:27 | 58.67681 | 7.14709 | 52° | 16km/h | 28361m | -27.8m/s | -48.0°C | 1.0% | 16.0hPa | 2.4V | 00:00:00 | 00:00:00 | 00:00:00 | |
| DL1XH1-15 | 2026-09-03 00:53:24 | 58.67671 | 7.14682 | 43° | 11km/h | 28494m | -26.3m/s | -48°C | 3.7% | 15.7hPa | 2.4V | 08:28:28 | 02:13:51 | 00:00:00 | |
| DL1XH-west | 2026-09-03 00:53:20 | 58.67664 | 7.14669 | 47° | 15km/h | 28572m | -25.8m/s | -47.8°C | 0.6% | 15.5hPa | 2.5V | 08:28:52 | 02:13:48 | 00:00:00 | |
| DL1XH1-15 | 2026-09-03 00:53:13 | 58.67650 | 7.14605 | 91° | 31km/h | 28736m | -27.1m/s | -47°C | 3.6% | 15.2hPa | 2.5V | 08:28:38 | 02:13:41 | 00:00:00 | |
| DL1XH-west | 2026-09-03 00:53:08 | 58.67653 | 7.14560 | 99° | 31km/h | 28815m | -26.7m/s | -46.2°C | 0.4% | 14.9hPa | 2.4V | 08:28:52 | 02:13:38 | 00:00:00 | |
| DL1XH1-15 | 2026-09-03 00:53:03 | 58.67653 | 7.14463 | 101° | 26km/h | 29015m | -26.9m/s | -45.4°C | 3.3% | 14.5hPa | 2.4V | 08:28:48 | 02:13:31 | 00:00:00 | |
| DL1XH-west | 2026-09-03 00:52:58 | 58.67660 | 7.14427 | 118° | 26km/h | 29085m | -23m/s | -45.2°C | 0.2% | 14.4hPa | 2.5V | 08:28:52 | 02:13:28 | 00:00:00 | |
| DL1XH1-15 | 2026-09-03 00:52:52 | 58.67672 | 7.14387 | 106° | 13km/h | 29293m | -38.6m/s | -44.7°C | 3.1% | 13.9hPa | 2.4V | 08:28:58 | 02:13:21 | 00:00:00 | |
| DL1XH-west | 2026-09-03 00:52:48 | 58.67676 | 7.14371 | 131° | 11km/h | 29404m | -35.7m/s | -44°C | 0% | 13.7hPa | 2.5V | 08:29:43 | 02:13:18 | 00:00:00 | |
| DL1XH1-15 | 2026-09-03 00:52:42 | 58.67692 | 7.14350 | 146° | 9km/h | 29651m | -29.1m/s | -44°C | 2.8% | 13.2hPa | 2.5V | 08:29:08 | 02:13:11 | 00:00:00 | |
| AA1-15 | 2026-09-03 00:52:42 | 58.67690 | 7.14353 | 147° | 9km/h | 29621m | -32.8m/s | -43.9°C | 0% | 13.2hPa | 2.5V | 08:29:43 | 02:13:12 | 00:00:00 | |
| DM0DOS-11 | 2026-09-03 00:52:39 | 58.67698 | 7.14346 | 178° | 4km/h | 29798m | -24.4m/s | -44.4°C | 3% | 12.9hPa | 2.5V | 08:29:13 | 02:13:06 | 00:00:00 | |
| DL1XH-west | 2026-09-03 00:52:38 | 58.67697 | 7.14347 | 196° | 2km/h | 29773m | -28.6m/s | -44.3°C | 0.2% | 12.9hPa | 2.4V | 08:29:43 | 02:13:07 | 00:00:00 | |
| DM0DOS-11 | 2026-09-03 00:52:32 | 58.67696 | 7.14292 | 49° | 13km/h | 30066m | -28.4m/s | -44.2°C | 2.9% | 12.4hPa | 2.4V | 08:29:23 | 02:12:56 | 00:00:00 | |
| AA1-15 | 2026-09-03 00:52:31 | 58.67702 | 7.14324 | 86° | 18km/h | 29920m | -27.4m/s | -44.3°C | 0.1% | 12.7hPa | 2.4V | 08:29:43 | 02:13:01 | 00:00:00 | |
| DL1XH-west | 2026-09-03 00:52:27 | 58.67698 | 7.14297 | 41° | 16km/h | 30038m | -29.8m/s | -44.2°C | 0.1% | 12.4hPa | 2.5V | 08:29:43 | 02:12:57 | 00:00:00 | |
| DM0DOS-11 | 2026-09-03 00:52:21 | 58.67717 | 7.14242 | 135° | 24km/h | 30339m | -21.9m/s | -44°C | 3% | 11.9hPa | 2.5V | 08:29:33 | 02:12:46 | 00:00:00 | |
| AA1-15 | 2026-09-03 00:52:20 | 58.67696 | 7.14263 | 154° | 18km/h | 30251m | -27.2m/s | -44.2°C | 0.2% | 12hPa | 2.5V | 08:29:43 | 02:12:50 | 00:00:00 | |
| DL1XH-west | 2026-09-03 00:52:16 | 58.67717 | 7.14242 | 136° | 24km/h | 30339m | -21.9m/s | -44°C | 0.1% | 11.9hPa | 2.5V | 08:29:43 | 02:12:46 | 00:00:00 | |
| AA1-15 | 2026-09-03 00:52:10 | 58.67716 | 7.14193 | 74° | 18km/h | 30502m | -35.3m/s | -43.8°C | 0.1% | 11.6hPa | 2.4V | 08:29:43 | 02:12:40 | 00:00:00 | |
| DM0DOS-11 | 2026-09-03 00:52:08 | 58.67713 | 7.14161 | 74° | 18km/h | 30631m | -30.6m/s | -43.4°C | 2.9% | 11.4hPa | 2.5V | 08:29:43 | 02:12:36 | 00:00:00 | |
| DL1XH1-15 | 2026-09-03 00:52:06 | 58.67694 | 7.14092 | 57° | 40km/h | 30795m | -32.7m/s | -43.4°C | 2.9% | 11.1hPa | 2.5V | 08:30:00 | 02:12:31 | 00:00:00 | |
| DL1XH-west | 2026-09-03 00:52:06 | 58.67713 | 7.14161 | 75° | 18km/h | 30631m | -30.6m/s | -43.4°C | 0% | 11.4hPa | 2.5V | 08:29:43 | 02:12:36 | 00:00:00 | |
| AA1-15 | 2026-09-03 00:51:59 | 58.67683 | 7.14061 | 64° | 33km/h | 30850m | -26.4m/s | -43.5°C | 0.1% | 11hPa | 2.5V | 18:12:15 | 02:12:29 | 00:00:00 | |
| DM0DOS-11 | 2026-09-03 00:51:57 | 58.67679 | 7.14025 | 95° | 20km/h | 30921m | -25.1m/s | -43.5°C | 3.1% | 10.9hPa | 2.4V | 08:30:00 | 02:12:26 | 00:00:00 | |
| DL1XH-west | 2026-09-03 00:51:56 | 58.67679 | 7.14025 | 96° | 20km/h | 30921m | -25.1m/s | -43.5°C | 0.2% | 10.9hPa | 2.4V | 18:12:15 | 02:12:26 | 00:00:00 | |
| DM0DOS-11 | 2026-09-03 00:51:52 | 58.67685 | 7.13866 | 121° | 24km/h | 31236m | -39.4m/s | -41.9°C | 2.8% | 10.4hPa | 2.5V | 08:30:00 | 02:12:15 | 00:00:00 | |
| AA1-15 | 2026-09-03 00:51:48 | 58.67677 | 7.13908 | 100° | 37km/h | 31131m | -34m/s | -43.1°C | 0.1% | 10.6hPa | 2.5V | 18:12:15 | 02:12:18 | 00:00:00 | |
| DL1XH-west | 2026-09-03 00:51:46 | 58.67685 | 7.13866 | 122° | 24km/h | 31236m | -39.4m/s | -41.9°C | 0% | 10.4hPa | 2.5V | 18:12:15 | 02:12:15 | 00:00:00 | |
| DL1XH1-15 | 2026-09-03 00:51:46 | 58.67696 | 7.13837 | 125° | 16km/h | 31393m | -36.2m/s | -41°C | 2.6% | 10.1hPa | 2.5V | 08:30:00 | 02:12:11 | 00:00:00 | |
| DM0DOS-11 | 2026-09-03 00:51:40 | 58.67704 | 7.13795 | 97° | 7km/h | 31595m | -36.1m/s | -40.6°C | 2.4% | 9.8hPa | 2.4V | 08:30:00 | 02:12:05 | 00:00:00 | |
| AA1-15 | 2026-09-03 00:51:36 | 58.67704 | 7.13800 | 98° | 13km/h | 31560m | -34.5m/s | -40.6°C | 0% | 9.9hPa | 2.4V | 18:12:15 | 02:12:06 | 00:00:00 | |
| DL1XH-west | 2026-09-03 00:51:34 | 58.67705 | 7.13792 | 107° | 4km/h | 31629m | -33.5m/s | -40.8°C | 0% | 9.8hPa | 2.5V | 18:12:15 | 02:12:04 | 00:00:00 | |
| DL1XH1-15 | 2026-09-03 00:51:33 | 58.67707 | 7.13789 | 183° | 4km/h | 31726m | -30.9m/s | -41°C | 2.5% | 9.7hPa | 2.5V | 08:30:00 | 02:12:01 | 00:00:00 | |
| DM0DOS-11 | 2026-09-03 00:51:29 | 58.67718 | 7.13787 | 124° | 11km/h | 31909m | -29.7m/s | -41.2°C | 2.4% | 9.4hPa | 2.5V | 08:30:00 | 02:11:55 | 00:00:00 | |
| AA1-15 | 2026-09-03 00:51:25 | 58.67719 | 7.13782 | 80° | 11km/h | 31942m | -35.1m/s | -41.2°C | 0% | 9.3hPa | 2.5V | 18:12:15 | 02:11:54 | 00:00:00 | |
| DL1XH-west | 2026-09-03 00:51:23 | 58.67718 | 7.13776 | 70° | 13km/h | 31978m | -35.9m/s | -41.3°C | 0% | 9.3hPa | 2.5V | 18:12:15 | 02:11:53 | 00:00:00 | |
| DL1XH1-15 | 2026-09-03 00:51:22 | 58.67715 | 7.13764 | 68° | 15km/h | 32032m | -18.5m/s | -41.6°C | 2.6% | 9.2hPa | 2.5V | 08:30:00 | 02:11:51 | 00:00:00 | |
| DM0DOS-11 | 2026-09-03 00:51:19 | 58.67707 | 7.13740 | 335° | 5km/h | 32027m | 5.7m/s | -41.7°C | 2.7% | 9.2hPa | 2.5V | 08:30:00 | 02:11:45 | 00:00:00 | |
| AA1-15 | 2026-09-03 00:51:15 | 58.67706 | 7.13741 | 330° | 4km/h | 32020m | 5.9m/s | -41.6°C | 0% | 9.2hPa | 2.5V | 18:12:15 | 02:11:44 | 00:00:00 | |
| DL1XH-west | 2026-09-03 00:51:13 | 58.67706 | 7.13741 | 143° | 5km/h | 32009m | 4.8m/s | -41.6°C | 0% | 9.2hPa | 2.5V | 18:12:15 | 02:11:42 | 00:00:00 | |
| DL1XH1-15 | 2026-09-03 00:51:12 | 58.67707 | 7.13739 | 149° | 7km/h | 32004m | 5.2m/s | -41.6°C | 2.6% | 9.2hPa | 2.5V | 08:30:00 | 02:11:41 | 00:00:00 | |
| DL1XH1-15 | 2026-09-03 00:51:06 | 58.67704 | 7.13706 | 337° | 5km/h | 31948m | 5.6m/s | -41.6°C | 2.7% | 9.3hPa | 2.5V | 08:30:00 | 02:11:31 | 00:00:00 | |
| AA1-15 | 2026-09-03 00:51:03 | 58.67706 | 7.13706 | 29° | 9km/h | 31954m | 5.9m/s | -41.6°C | 0% | 9.3hPa | 2.5V | 18:12:15 | 02:11:32 | 00:00:00 | |
| DL1XH-west | 2026-09-03 00:51:02 | 58.67704 | 7.13706 | 337° | 5km/h | 31948m | 5.6m/s | -41.6°C | 0% | 9.3hPa | 2.5V | 18:12:15 | 02:11:31 | 00:00:00 | |
| DM0DOS-11 | 2026-09-03 00:51:01 | 58.67717 | 7.13713 | 157° | 7km/h | 31909m | 5.8m/s | -41.5°C | 2.6% | 9.4hPa | 2.5V | 08:30:00 | 02:11:24 | 00:00:00 | |
| DL1XH1-15 | 2026-09-03 00:50:54 | 58.67717 | 7.13711 | 23° | 7km/h | 31892m | 5.5m/s | -41.5°C | 2.7% | 9.4hPa | 2.5V | 08:30:00 | 02:11:21 | 00:00:00 | |
| AA1-15 | 2026-09-03 00:50:52 | 58.67717 | 7.13711 | 23° | 7km/h | 31892m | 5.5m/s | -41.5°C | 0% | 9.4hPa | 2.5V | 18:12:15 | 02:11:21 | 00:00:00 | |
| DL1XH-west | 2026-09-03 00:50:50 | 58.67715 | 7.13709 | 30° | 9km/h | 31886m | 6.3m/s | -41.4°C | 0% | 9.4hPa | 2.5V | 18:12:15 | 02:11:20 | 00:00:00 | |
| DM0DOS-11 | 2026-09-03 00:50:49 | 58.67717 | 7.13715 | 225° | 18km/h | 31848m | 4.8m/s | -41.4°C | 2.6% | 9.4hPa | 2.5V | 08:30:00 | 02:11:13 | 00:00:00 | |
| DL1XH1-15 | 2026-09-03 00:50:44 | 58.67724 | 7.13724 | 196° | 15km/h | 31837m | 5.8m/s | -41.4°C | 2.6% | 9.5hPa | 2.5V | 08:30:00 | 02:11:11 | 00:00:00 | |
| DL1XH-west | 2026-09-03 00:50:40 | 58.67730 | 7.13723 | 148° | 9km/h | 31827m | 4.4m/s | -41.4°C | 0% | 9.5hPa | 2.4V | 18:12:15 | 02:11:09 | 00:00:00 | |
| AA1-15 | 2026-09-03 00:50:39 | 58.67731 | 7.13720 | 134° | 7km/h | 31821m | 5.7m/s | -41.4°C | 0% | 9.5hPa | 2.5V | 18:12:15 | 02:11:08 | 00:00:00 | |
| DL1XH1-15 | 2026-09-03 00:50:34 | 58.67734 | 7.13718 | 168° | 9km/h | 31783m | 5.3m/s | -41.4°C | 2.5% | 9.5hPa | 2.5V | 08:30:00 | 02:11:01 | 00:00:00 | |
| AA1-15 | 2026-09-03 00:50:29 | 58.67741 | 7.13719 | 210° | 9km/h | 31766m | 5.5m/s | -41.4°C | 0% | 9.6hPa | 2.5V | 18:12:15 | 02:10:58 | 00:00:00 | |
| DM0DOS-11 | 2026-09-03 00:50:28 | 58.67749 | 7.13725 | 167° | 9km/h | 31745m | 5.5m/s | -41.3°C | 2.6% | 9.6hPa | 2.5V | 08:30:00 | 02:10:54 | 00:00:00 | |
| DL1XH-west | 2026-09-03 00:50:19 | 58.67753 | 7.13721 | 315° | 5km/h | 31717m | 5.1m/s | -41.3°C | 0% | 9.7hPa | 2.5V | 18:12:15 | 02:10:49 | 00:00:00 | |
| AA1-15 | 2026-09-03 00:50:18 | 58.67752 | 7.13724 | 322° | 2km/h | 31708m | 5.2m/s | -41.3°C | 0% | 9.7hPa | 2.5V | 18:12:15 | 02:10:47 | 00:00:00 | |
| DM0DOS-11 | 2026-09-03 00:50:17 | 58.67755 | 7.13716 | 128° | 13km/h | 31691m | 5m/s | -41.2°C | 2.6% | 9.7hPa | 2.5V | 08:30:00 | 02:10:44 | 00:00:00 | |
| DL1XH1-15 | 2026-09-03 00:50:13 | 58.67761 | 7.13702 | 130° | 9km/h | 31674m | 5.8m/s | -41.1°C | 2.6% | 9.7hPa | 2.5V | 08:30:00 | 02:10:41 | 00:00:00 | |
| DL1XH-west | 2026-09-03 00:50:09 | 58.67765 | 7.13697 | 149° | 7km/h | 31659m | 5.6m/s | -41.1°C | 0% | 9.7hPa | 2.5V | 18:12:15 | 02:10:38 | 00:00:00 | |
| AA1-15 | 2026-09-03 00:50:07 | 58.67769 | 7.13690 | 134° | 15km/h | 31646m | 5.8m/s | -41.1°C | 0% | 9.7hPa | 2.5V | 18:12:15 | 02:10:36 | 00:00:00 | |
| DM0DOS-11 | 2026-09-03 00:50:07 | 58.67774 | 7.13679 | 123° | 15km/h | 31636m | 5.2m/s | -41°C | 2.6% | 9.8hPa | 2.5V | 08:30:00 | 02:10:34 | 00:00:00 | |
| DL1XH1-15 | 2026-09-03 00:50:03 | 58.67776 | 7.13665 | 92° | 9km/h | 31619m | 5.2m/s | -41°C | 2.6% | 9.8hPa | 2.5V | 08:30:00 | 02:10:31 | 00:00:00 | |
| DL1XH-west | 2026-09-03 00:49:59 | 58.67777 | 7.13646 | 100° | 18km/h | 31602m | 4.9m/s | -41°C | 0% | 9.8hPa | 2.5V | 18:12:15 | 02:10:28 | 00:00:00 | |
| AA1-15 | 2026-09-03 00:49:56 | 58.67779 | 7.13622 | 96° | 13km/h | 31586m | 6.4m/s | -40.9°C | 0% | 9.8hPa | 2.5V | 18:12:15 | 02:10:25 | 00:00:00 | |
| DL1XH1-15 | 2026-09-03 00:49:52 | 58.67780 | 7.13606 | 111° | 11km/h | 31564m | 5.6m/s | -41°C | 2.5% | 9.8hPa | 2.5V | 08:30:00 | 02:10:21 | 00:00:00 | |
| DL1XH-west | 2026-09-03 00:49:48 | 58.67787 | 7.13584 | 119° | 22km/h | 31547m | 4.7m/s | -41.1°C | 0% | 9.9hPa | 2.5V | 18:12:15 | 02:10:18 | 00:00:00 | |
| AA1-15 | 2026-09-03 00:49:45 | 58.67792 | 7.13559 | 101° | 13km/h | 31530m | 5.6m/s | -41.2°C | 0% | 9.9hPa | 2.4V | 18:12:15 | 02:10:15 | 00:00:00 | |
| DL1XH1-15 | 2026-09-03 00:49:42 | 58.67793 | 7.13535 | 102° | 15km/h | 31507m | 5.6m/s | -41.4°C | 2.6% | 9.9hPa | 2.5V | 08:30:00 | 02:10:11 | 00:00:00 | |
| DM0DOS-11 | 2026-09-03 00:49:40 | 58.67796 | 7.13521 | 120° | 15km/h | 31497m | 5.3m/s | -41.4°C | 2.6% | 9.9hPa | 2.5V | 08:30:00 | 02:10:09 | 00:00:00 | |
| DL1XH-west | 2026-09-03 00:49:38 | 58.67800 | 7.13513 | 151° | 11km/h | 31485m | 5.8m/s | -41.4°C | 0% | 10hPa | 2.5V | 18:12:15 | 02:10:07 | 00:00:00 | |
| AA1-15 | 2026-09-03 00:49:34 | 58.67809 | 7.13504 | 147° | 18km/h | 31468m | 6.4m/s | -41.3°C | 0% | 10hPa | 2.5V | 18:12:15 | 02:10:04 | 00:00:00 | |
| DL1XH1-15 | 2026-09-03 00:49:32 | 58.67822 | 7.13480 | 127° | 24km/h | 31451m | 5.7m/s | -41.4°C | 2.6% | 10hPa | 2.5V | 08:30:00 | 02:10:01 | 00:00:00 | |
| DM0DOS-11 | 2026-09-03 00:49:30 | 58.67828 | 7.13464 | 122° | 16km/h | 31439m | 5.2m/s | -41.4°C | 2.6% | 10.1hPa | 2.6V | 08:30:00 | 02:09:59 | 00:00:00 | |
| DL1XH-west | 2026-09-03 00:49:28 | 58.67831 | 7.13451 | 121° | 15km/h | 31429m | 5.3m/s | -41.4°C | 0% | 10.1hPa | 2.5V | 18:12:15 | 02:09:57 | 00:00:00 | |
| DL1XH1-15 | 2026-09-03 00:49:26 | 58.67850 | 7.13415 | 164° | 16km/h | 31393m | 6.2m/s | -41.4°C | 2.6% | 10.1hPa | 2.5V | 08:30:00 | 02:09:51 | 00:00:00 | |
| DM0DOS-11 | 2026-09-03 00:49:25 | 58.67859 | 7.13411 | 168° | 20km/h | 31383m | 4.5m/s | -41.5°C | 2.5% | 10.1hPa | 2.5V | 08:30:00 | 02:09:49 | 00:00:00 | |
| AA1-15 | 2026-09-03 00:49:22 | 58.67850 | 7.13415 | 164° | 16km/h | 31393m | 6.2m/s | -41.4°C | 0% | 10.1hPa | 2.5V | 18:12:15 | 02:09:51 | 00:00:00 | |
| DL1XH-west | 2026-09-03 00:49:17 | 58.67870 | 7.13404 | 149° | 27km/h | 31372m | 6.2m/s | -41.6°C | 0% | 10.2hPa | 2.5V | 18:12:15 | 02:09:47 | 00:00:00 | |
| DL1XH1-15 | 2026-09-03 00:49:12 | 58.67896 | 7.13347 | 120° | 20km/h | 31337m | 4.9m/s | -41.8°C | 2.5% | 10.2hPa | 2.5V | 08:30:00 | 02:09:41 | 00:00:00 | |
| AA1-15 | 2026-09-03 00:49:11 | 58.67898 | 7.13338 | 117° | 20km/h | 31332m | 6m/s | -41.9°C | 0% | 10.2hPa | 2.5V | 18:12:15 | 02:09:40 | 00:00:00 | |
| DL1XH-west | 2026-09-03 00:49:07 | 58.67911 | 7.13293 | 123° | 20km/h | 31303m | 5.5m/s | -42.3°C | 0% | 10.3hPa | 2.5V | 18:12:15 | 02:09:35 | 00:00:00 | |
| DL1XH1-15 | 2026-09-03 00:49:07 | 58.67933 | 7.13230 | 124° | 46km/h | 31274m | 5m/s | -42.5°C | 2.6% | 10.3hPa | 2.4V | 08:30:00 | 02:09:30 | 00:00:00 | |
| DM0DOS-11 | 2026-09-03 00:49:03 | 58.67939 | 7.13211 | 123° | 46km/h | 31269m | 4.9m/s | -42.6°C | 2.6% | 10.3hPa | 2.5V | 08:30:00 | 02:09:29 | 00:00:00 | |
| AA1-15 | 2026-09-03 00:49:01 | 58.67926 | 7.13247 | 124° | 42km/h | 31280m | 5.9m/s | -42.5°C | 0% | 10.3hPa | 2.5V | 18:12:15 | 02:09:31 | 00:00:00 | |
| DL1XH-west | 2026-09-03 00:48:55 | 58.67961 | 7.13142 | 116° | 27km/h | 31241m | 5.9m/s | -42.8°C | 0% | 10.4hPa | 2.5V | 18:12:15 | 02:09:24 | 00:00:00 | |
| DM0DOS-11 | 2026-09-03 00:48:51 | 58.67974 | 7.13071 | 105° | 29km/h | 31212m | 6.8m/s | -43°C | 2.7% | 10.4hPa | 2.5V | 08:30:00 | 02:09:19 | 00:00:00 | |
| AA1-15 | 2026-09-03 00:48:51 | 58.67970 | 7.13101 | 108° | 33km/h | 31224m | 4.9m/s | -43°C | 0% | 10.4hPa | 2.5V | 18:12:15 | 02:09:21 | 00:00:00 | |
| DL1XH1-15 | 2026-09-03 00:48:45 | 58.67992 | 7.12929 | 94° | 31km/h | 31160m | 4.9m/s | -43.5°C | 2.8% | 10.5hPa | 2.5V | 08:30:00 | 02:09:10 | 00:00:00 | |
| DL1XH-west | 2026-09-03 00:48:45 | 58.67983 | 7.13015 | 106° | 37km/h | 31189m | 5.8m/s | -43.3°C | 0% | 10.4hPa | 2.5V | 18:12:15 | 02:09:15 | 00:00:00 | |
| AA1-15 | 2026-09-03 00:48:40 | 58.67992 | 7.12929 | 94° | 31km/h | 31160m | 4.9m/s | 0°C | 0% | 10.5hPa | 2.5V | 18:12:15 | 02:09:10 | 00:00:00 | |
| DJ2DS-15 | 2026-09-03 00:48:38 | 58.67993 | 7.12899 | 90° | 31km/h | 31149m | 6.2m/s | -43.6°C | 0.8% | 10.5hPa | 2.5V | 00:00:00 | 00:00:00 | 00:00:00 | |
| DL1XH1-15 | 2026-09-03 00:48:35 | 58.67990 | 7.12766 | 82° | 35km/h | 31102m | 6.7m/s | -43.7°C | 2.8% | 10.6hPa | 2.5V | 08:30:00 | 02:09:00 | 00:00:00 | |
| DL1XH-west | 2026-09-03 00:48:35 | 58.67993 | 7.12847 | 90° | 38km/h | 31132m | 5.1m/s | -43.7°C | 0.1% | 10.5hPa | 2.5V | 18:12:15 | 02:09:05 | 00:00:00 | |
| AA1-15 | 2026-09-03 00:48:30 | 58.67989 | 7.12748 | 83° | 38km/h | 31096m | 5.5m/s | 0°C | 0% | 0hPa | 2.4V | 18:12:15 | 02:08:59 | 00:00:00 | |
| DL1XH1-15 | 2026-09-03 00:48:25 | 58.67976 | 7.12612 | 86° | 33km/h | 31044m | 5.2m/s | -43.7°C | 2.9% | 10.7hPa | 2.5V | 08:30:00 | 02:08:50 | 00:00:00 | |
| DL1XH-west | 2026-09-03 00:48:24 | 58.67981 | 7.12668 | 74° | 26km/h | 31068m | 5.4m/s | -43.7°C | 0.1% | 10.6hPa | 2.5V | 18:12:15 | 02:08:54 | 00:00:00 | |
| AA1-15 | 2026-09-03 00:48:20 | 58.67975 | 7.12582 | 89° | 29km/h | 31032m | 7m/s | 0°C | 0% | 0hPa | 2.5V | 18:12:15 | 02:08:48 | 00:00:00 | |
| DM0DOS-11 | 2026-09-03 00:48:15 | 58.67968 | 7.12458 | 79° | 24km/h | 30979m | 6m/s | -43.6°C | 2.9% | 10.8hPa | 2.5V | 08:30:00 | 02:08:39 | 00:00:00 | |
| DL1XH1-15 | 2026-09-03 00:48:14 | 58.67969 | 7.12471 | 80° | 29km/h | 30985m | 6.5m/s | -43.6°C | 2.9% | 10.8hPa | 2.5V | 08:30:00 | 02:08:40 | 00:00:00 | |
| DL1XH-west | 2026-09-03 00:48:14 | 58.67974 | 7.12532 | 83° | 27km/h | 31009m | 6.5m/s | -43.6°C | 0% | 10.7hPa | 2.5V | 18:12:15 | 02:08:44 | 00:00:00 | |
| AA1-15 | 2026-09-03 00:48:08 | 58.67966 | 7.12436 | 82° | 24km/h | 30968m | 5.4m/s | 0°C | 0% | 0hPa | 2.5V | 18:12:15 | 02:08:37 | 00:00:00 | |
| DM0DOS-11 | 2026-09-03 00:48:04 | 58.67950 | 7.12308 | 70° | 38km/h | 30916m | 6.9m/s | -43.7°C | 2.8% | 10.9hPa | 2.5V | 08:30:00 | 02:08:28 | 00:00:00 | |
| DL1XH1-15 | 2026-09-03 00:48:04 | 58.67955 | 7.12339 | 71° | 31km/h | 30928m | 4.8m/s | -43.7°C | 2.9% | 10.8hPa | 2.5V | 08:30:00 | 02:08:30 | 00:00:00 | |
| DL1XH-west | 2026-09-03 00:48:04 | 58.67963 | 7.12395 | 81° | 31km/h | 30951m | 4.7m/s | -43.6°C | 0% | 10.8hPa | 2.5V | 18:12:15 | 02:08:34 | 00:00:00 | |
| AA1-15 | 2026-09-03 00:47:58 | 58.67950 | 7.12308 | 70° | 38km/h | 30916m | 6.9m/s | 0°C | 0% | 0hPa | 2.5V | 18:12:15 | 02:08:28 | 00:00:00 | |
| DL1XH-west | 2026-09-03 00:47:54 | 58.67934 | 7.12210 | 77° | 35km/h | 30887m | 6.3m/s | -43.7°C | 0% | 10.9hPa | 2.5V | 18:12:15 | 02:08:23 | 00:00:00 | |
| DM0DOS-11 | 2026-09-03 00:47:53 | 58.67921 | 7.12116 | 67° | 42km/h | 30853m | 4.5m/s | -43.7°C | 2.8% | 11hPa | 2.5V | 08:30:00 | 02:08:17 | 00:00:00 | |
| AA1-15 | 2026-09-03 00:47:46 | 58.67917 | 7.12097 | 68° | 40km/h | 30848m | 6.1m/s | 0°C | 0% | 0hPa | 2.5V | 18:12:15 | 02:08:16 | 00:00:00 | |
| DL1XH-west | 2026-09-03 00:47:43 | 58.67904 | 7.12017 | 80° | 35km/h | 30817m | 6.8m/s | -43.7°C | 0% | 11hPa | 2.5V | 18:12:15 | 02:08:11 | 00:00:00 | |
| DM0DOS-11 | 2026-09-03 00:47:42 | 58.67900 | 7.11968 | 79° | 31km/h | 30801m | 4.6m/s | -43.7°C | 2.9% | 11hPa | 2.5V | 08:30:00 | 02:08:08 | 00:00:00 | |
| AA1-15 | 2026-09-03 00:47:36 | 58.67895 | 7.11936 | 59° | 16km/h | 30783m | 5.5m/s | 0°C | 0% | 0hPa | 2.5V | 18:12:15 | 02:08:05 | 00:00:00 | |
| DL1XH1-15 | 2026-09-03 00:47:33 | 58.67880 | 7.11888 | 65° | 31km/h | 30755m | 5.2m/s | -43.7°C | 2.8% | 11.2hPa | 2.4V | 08:30:00 | 02:08:00 | 00:00:00 | |
| DL1XH-west | 2026-09-03 00:47:32 | 58.67880 | 7.11888 | 66° | 31km/h | 30755m | 5.2m/s | -43.7°C | 0% | 11.2hPa | 2.4V | 18:12:15 | 02:08:00 | 00:00:00 | |
| DM0DOS-11 | 2026-09-03 00:47:26 | 58.67868 | 7.11796 | 81° | 22km/h | 30713m | 5.1m/s | -43.8°C | 2.8% | 11.2hPa | 2.5V | 08:30:00 | 02:07:53 | 00:00:00 | |
| AA1-15 | 2026-09-03 00:47:26 | 58.67870 | 7.11821 | 82° | 27km/h | 30725m | 6.3m/s | 0°C | 0% | 0hPa | 2.5V | 18:12:15 | 02:07:55 | 00:00:00 | |
| DL1XH1-15 | 2026-09-03 00:47:22 | 58.67865 | 7.11776 | 40° | 7km/h | 30695m | 4.7m/s | -43.8°C | 2.9% | 11.2hPa | 2.5V | 08:30:00 | 02:07:50 | 00:00:00 | |
| DL1XH-west | 2026-09-03 00:47:21 | 58.67865 | 7.11776 | 41° | 7km/h | 30695m | 4.7m/s | -43.8°C | 0.1% | 11.2hPa | 2.5V | 18:12:15 | 02:07:50 | 00:00:00 | |
| AA1-15 | 2026-09-03 00:47:15 | 58.67842 | 7.11730 | 55° | 35km/h | 30662m | 5.8m/s | 0°C | 0% | 0hPa | 2.5V | 18:12:15 | 02:07:44 | 00:00:00 | |
| DM0DOS-11 | 2026-09-03 00:47:15 | 58.67838 | 7.11716 | 58° | 31km/h | 30656m | 5.8m/s | -44.1°C | 2.9% | 11.3hPa | 2.5V | 08:30:00 | 02:07:43 | 00:00:00 | |
| DL1XH1-15 | 2026-09-03 00:47:12 | 58.67829 | 7.11680 | 76° | 24km/h | 30639m | 5.7m/s | -44.2°C | 2.9% | 11.3hPa | 2.5V | 08:30:00 | 02:07:40 | 00:00:00 | |
| DL1XH-west | 2026-09-03 00:47:10 | 58.67828 | 7.11669 | 77° | 22km/h | 30633m | 6.6m/s | -44.2°C | 0% | 11.3hPa | 2.5V | 18:12:15 | 02:07:39 | 00:00:00 | |
| DM0DOS-11 | 2026-09-03 00:47:09 | 58.67813 | 7.11618 | 47° | 18km/h | 30593m | 6.1m/s | -44.4°C | 2.9% | 11.4hPa | 2.4V | 08:30:00 | 02:07:32 | 00:00:00 | |
| AA1-15 | 2026-09-03 00:47:03 | 58.67816 | 7.11624 | 40° | 15km/h | 30599m | 5.5m/s | 0°C | 0% | 0hPa | 2.4V | 18:12:15 | 02:07:33 | 00:00:00 | |
| DL1XH1-15 | 2026-09-03 00:47:02 | 58.67807 | 7.11599 | 67° | 26km/h | 30582m | 4.8m/s | -44.4°C | 3% | 11.4hPa | 2.5V | 08:30:00 | 02:07:30 | 00:00:00 | |
| DL1XH-west | 2026-09-03 00:47:00 | 58.67807 | 7.11599 | 68° | 26km/h | 30582m | 4.8m/s | -44.4°C | 0.1% | 11.4hPa | 2.5V | 18:12:15 | 02:07:30 | 00:00:00 | |
| DM0DOS-11 | 2026-09-03 00:46:57 | 58.67793 | 7.11519 | 58° | 16km/h | 30532m | 4.9m/s | -44.4°C | 3% | 11.5hPa | 2.4V | 08:30:00 | 02:07:21 | 00:00:00 | |
| DL1XH1-15 | 2026-09-03 00:46:52 | 58.67791 | 7.11513 | 51° | 13km/h | 30526m | 6.2m/s | -44.4°C | 3% | 11.5hPa | 2.5V | 08:30:00 | 02:07:20 | 00:00:00 | |
| DL1XH-west | 2026-09-03 00:46:50 | 58.67791 | 7.11513 | 52° | 13km/h | 30526m | 6.2m/s | -44.4°C | 0.1% | 11.5hPa | 2.5V | 18:12:15 | 02:07:20 | 00:00:00 | |
| DM0DOS-11 | 2026-09-03 00:46:46 | 58.67789 | 7.11467 | 101° | 15km/h | 30479m | 5.7m/s | -44.4°C | 2.9% | 11.6hPa | 2.5V | 08:30:00 | 02:07:12 | 00:00:00 | |
| DL1XH1-15 | 2026-09-03 00:46:41 | 58.67790 | 7.11453 | 81° | 13km/h | 30469m | 5m/s | -44.4°C | 2.9% | 11.6hPa | 2.5V | 08:30:00 | 02:07:10 | 00:00:00 | |
| AA1-15 | 2026-09-03 00:46:40 | 58.67790 | 7.11453 | 82° | 13km/h | 30469m | 5m/s | 0°C | 0% | 0hPa | 2.5V | 18:12:15 | 02:07:10 | 00:00:00 | |
| DL1XH-west | 2026-09-03 00:46:39 | 58.67789 | 7.11447 | 77° | 15km/h | 30463m | 6.2m/s | -44.4°C | 0.1% | 11.7hPa | 2.5V | 18:12:15 | 02:07:09 | 00:00:00 | |
| DM0DOS-11 | 2026-09-03 00:46:36 | 58.67790 | 7.11417 | 198° | 9km/h | 30424m | 4.4m/s | -44.4°C | 3% | 11.7hPa | 2.4V | 08:30:00 | 02:07:02 | 00:00:00 | |
| DL1XH1-15 | 2026-09-03 00:46:36 | 58.67796 | 7.11417 | 156° | 13km/h | 30413m | 6.2m/s | -44.4°C | 3% | 11.7hPa | 2.5V | 08:30:00 | 02:07:00 | 00:00:00 | |
| DL1XH-west | 2026-09-03 00:46:28 | 58.67801 | 7.11405 | 122° | 20km/h | 30402m | 5m/s | -44.4°C | 0% | 11.8hPa | 2.5V | 18:12:15 | 02:06:58 | 00:00:00 | |
| DL1XH1-15 | 2026-09-03 00:46:25 | 58.67811 | 7.11359 | 124° | 13km/h | 30355m | 5.2m/s | -44.5°C | 3% | 11.8hPa | 2.4V | 08:30:00 | 02:06:50 | 00:00:00 | |
| AA1-15 | 2026-09-03 00:46:22 | 58.67809 | 7.11368 | 110° | 9km/h | 30367m | 5.9m/s | 0°C | 0% | 0hPa | 2.5V | 18:12:15 | 02:06:52 | 00:00:00 | |
| DL1XH-west | 2026-09-03 00:46:18 | 58.67816 | 7.11351 | 159° | 13km/h | 30344m | 6.3m/s | -44.6°C | 0.1% | 11.8hPa | 2.5V | 18:12:15 | 02:06:48 | 00:00:00 | |
| DL1XH1-15 | 2026-09-03 00:46:15 | 58.67842 | 7.11325 | 146° | 13km/h | 30297m | 5.4m/s | -44.6°C | 3% | 11.9hPa | 2.5V | 08:30:00 | 02:06:40 | 00:00:00 | |
| DM0DOS-11 | 2026-09-03 00:46:14 | 58.67837 | 7.11334 | 133° | 16km/h | 30309m | 5m/s | -44.6°C | 3% | 11.9hPa | 2.5V | 08:30:00 | 02:06:42 | 00:00:00 | |
| AA1-15 | 2026-09-03 00:46:11 | 58.67840 | 7.11329 | 137° | 15km/h | 30303m | 6.2m/s | 0°C | 0% | 0hPa | 2.5V | 18:12:15 | 02:06:41 | 00:00:00 | |
| DL1XH-west | 2026-09-03 00:46:08 | 58.67853 | 7.11314 | 148° | 20km/h | 30281m | 6.4m/s | -44.6°C | 0.1% | 12hPa | 2.5V | 18:12:15 | 02:06:37 | 00:00:00 | |
| DM0DOS-11 | 2026-09-03 00:46:08 | 58.67878 | 7.11280 | 150° | 20km/h | 30252m | 5.6m/s | -44.5°C | 3% | 12hPa | 2.5V | 08:30:00 | 02:06:32 | 00:00:00 | |
| AA1-15 | 2026-09-03 00:46:01 | 58.67882 | 7.11276 | 148° | 16km/h | 30247m | 5m/s | 0°C | 0% | 0hPa | 2.5V | 18:12:15 | 02:06:31 | 00:00:00 | |
| DL1XH-west | 2026-09-03 00:45:57 | 58.67890 | 7.11239 | 96° | 18km/h | 30218m | 6m/s | -44.5°C | 0.1% | 12.1hPa | 2.4V | 18:12:15 | 02:06:26 | 00:00:00 | |
| DM0DOS-11 | 2026-09-03 00:45:56 | 58.67899 | 7.11213 | 142° | 18km/h | 30189m | 6.6m/s | -44.7°C | 3% | 12.1hPa | 2.5V | 08:30:00 | 02:06:21 | 00:00:00 | |
| DL1XH1-15 | 2026-09-03 00:45:54 | 58.67903 | 7.11206 | 137° | 22km/h | 30183m | 5.4m/s | -44.8°C | 3% | 12.1hPa | 2.5V | 08:30:00 | 02:06:20 | 00:00:00 | |
| DM0DOS-11 | 2026-09-03 00:45:46 | 58.67910 | 7.11149 | 60° | 9km/h | 30126m | 6.8m/s | -44.7°C | 3.1% | 12.2hPa | 2.5V | 08:30:00 | 02:06:10 | 00:00:00 | |
| AA1-15 | 2026-09-03 00:45:46 | 58.67914 | 7.11181 | 104° | 9km/h | 30161m | 4.8m/s | 0°C | 0% | 0hPa | 2.5V | 18:12:15 | 02:06:16 | 00:00:00 | |
| DL1XH-west | 2026-09-03 00:45:45 | 58.67915 | 7.11177 | 84° | 9km/h | 30155m | 5.5m/s | -44.7°C | 0.2% | 12.2hPa | 2.5V | 18:12:15 | 02:06:15 | 00:00:00 | |
| DL1XH1-15 | 2026-09-03 00:45:44 | 58.67910 | 7.11149 | 60° | 9km/h | 30126m | 6.8m/s | -44.7°C | 3.1% | 12.2hPa | 2.5V | 08:30:00 | 02:06:10 | 00:00:00 | |
| DJ2DS-15 | 2026-09-03 00:45:38 | 58.67908 | 7.11143 | 84° | 4km/h | 30111m | 5.1m/s | -44.7°C | 0.8% | 12.3hPa | 2.5V | 00:00:00 | 00:00:00 | 00:00:00 | |
| DM0DOS-11 | 2026-09-03 00:45:35 | 58.67907 | 7.11098 | 66° | 15km/h | 30076m | 6m/s | -44.8°C | 3% | 12.3hPa | 2.5V | 08:30:00 | 02:06:01 | 00:00:00 | |
| DL1XH1-15 | 2026-09-03 00:45:34 | 58.67906 | 7.11093 | 51° | 9km/h | 30071m | 5.4m/s | -44.8°C | 3% | 12.4hPa | 2.5V | 08:30:00 | 02:06:00 | 00:00:00 | |
| DL1XH-west | 2026-09-03 00:45:34 | 58.67909 | 7.11125 | 93° | 20km/h | 30093m | 4.6m/s | -44.8°C | 0.1% | 12.3hPa | 2.5V | 18:12:15 | 02:06:04 | 00:00:00 | |
| AA1-15 | 2026-09-03 00:45:33 | 58.67909 | 7.11115 | 87° | 22km/h | 30088m | 4.7m/s | 0°C | 0% | 0hPa | 2.5V | 18:12:15 | 02:06:03 | 00:00:00 | |
| DM0DOS-11 | 2026-09-03 00:45:24 | 58.67897 | 7.11070 | 42° | 11km/h | 30019m | 5.2m/s | -44.8°C | 3% | 12.4hPa | 2.5V | 08:30:00 | 02:05:51 | 00:00:00 | |
| DL1XH1-15 | 2026-09-03 00:45:24 | 58.67895 | 7.11065 | 62° | 13km/h | 30014m | 5.7m/s | -44.9°C | 3.1% | 12.5hPa | 2.5V | 08:30:00 | 02:05:50 | 00:00:00 | |
| DL1XH-west | 2026-09-03 00:45:23 | 58.67900 | 7.11074 | 39° | 7km/h | 30031m | 6.4m/s | -44.8°C | 0.2% | 12.4hPa | 2.5V | 18:12:15 | 02:05:53 | 00:00:00 | |
| DM0DOS-11 | 2026-09-03 00:45:14 | 58.67890 | 7.11022 | 170° | 2km/h | 29963m | 6.7m/s | -44.8°C | 3% | 12.6hPa | 2.5V | 08:30:00 | 02:05:41 | 00:00:00 | |
| DL1XH1-15 | 2026-09-03 00:45:13 | 58.67891 | 7.11020 | 135° | 7km/h | 29957m | 6.6m/s | -44.8°C | 3% | 12.6hPa | 2.5V | 08:30:00 | 02:05:40 | 00:00:00 | |
| DL1XH-west | 2026-09-03 00:45:13 | 58.67891 | 7.11021 | 350° | 4km/h | 29974m | 4.7m/s | -44.8°C | 0.1% | 12.5hPa | 2.5V | 18:12:15 | 02:05:43 | 00:00:00 | |
| DL1XH-west | 2026-09-03 00:45:03 | 58.67898 | 7.10973 | 88° | 18km/h | 29915m | 6.5m/s | -44.8°C | 0.2% | 12.7hPa | 2.5V | 18:12:15 | 02:05:33 | 00:00:00 | |
| DM0DOS-11 | 2026-09-03 00:45:03 | 58.67898 | 7.10956 | 92° | 13km/h | 29904m | 4.5m/s | -44.8°C | 3% | 12.7hPa | 2.5V | 08:30:00 | 02:05:31 | 00:00:00 | |
| DL1XH1-15 | 2026-09-03 00:45:02 | 58.67898 | 7.10952 | 95° | 7km/h | 29898m | 6.1m/s | -44.8°C | 3% | 12.7hPa | 2.5V | 08:30:00 | 02:05:30 | 00:00:00 | |
| DM0DOS-11 | 2026-09-03 00:44:57 | 58.67912 | 7.10930 | 64° | 15km/h | 29838m | 5.5m/s | -44.8°C | 2.9% | 12.8hPa | 2.5V | 08:30:00 | 02:05:20 | 00:00:00 | |
| DL1XH-west | 2026-09-03 00:44:53 | 58.67913 | 7.10944 | 100° | 15km/h | 29852m | 7.1m/s | -44.8°C | 0.2% | 12.8hPa | 2.4V | 18:12:15 | 02:05:22 | 00:00:00 | |
| DL1XH1-15 | 2026-09-03 00:44:52 | 58.67912 | 7.10930 | 64° | 15km/h | 29838m | 5.5m/s | -44.8°C | 2.9% | 12.8hPa | 2.5V | 08:30:00 | 02:05:20 | 00:00:00 | |
| DM0DOS-11 | 2026-09-03 00:44:45 | 58.67921 | 7.10900 | 201° | 7km/h | 29785m | 5.3m/s | -44.6°C | 3% | 12.9hPa | 2.5V | 08:30:00 | 02:05:11 | 00:00:00 | |
| DL1XH-west | 2026-09-03 00:44:41 | 58.67921 | 7.10900 | 202° | 7km/h | 29785m | 5.3m/s | -44.6°C | 0.2% | 12.9hPa | 2.5V | 18:12:15 | 02:05:11 | 00:00:00 | |
| DL1XH1-15 | 2026-09-03 00:44:41 | 58.67923 | 7.10900 | 182° | 5km/h | 29780m | 4.9m/s | -44.6°C | 3% | 12.9hPa | 2.5V | 08:30:00 | 02:05:10 | 00:00:00 | |
| DM0DOS-11 | 2026-09-03 00:44:35 | 58.67937 | 7.10876 | 173° | 13km/h | 29728m | 6.5m/s | -44.6°C | 3.1% | 13hPa | 2.5V | 08:30:00 | 02:05:01 | 00:00:00 | |
| DL1XH1-15 | 2026-09-03 00:44:31 | 58.67941 | 7.10876 | 178° | 16km/h | 29721m | 6.2m/s | -44.6°C | 3% | 13hPa | 2.5V | 08:30:00 | 02:05:00 | 00:00:00 | |
| DL1XH-west | 2026-09-03 00:44:30 | 58.67941 | 7.10876 | 179° | 16km/h | 29721m | 6.2m/s | -44.7°C | 0.2% | 13hPa | 2.5V | 18:12:15 | 02:05:00 | 00:00:00 | |
| DL1XH1-15 | 2026-09-03 00:44:25 | 58.67968 | 7.10877 | 157° | 2km/h | 29661m | 5.1m/s | -44.5°C | 2.9% | 13.2hPa | 2.5V | 08:30:00 | 02:04:50 | 00:00:00 | |
| DM0DOS-11 | 2026-09-03 00:44:24 | 58.67967 | 7.10878 | 137° | 4km/h | 29666m | 5.9m/s | -44.5°C | 3% | 13.1hPa | 2.5V | 08:30:00 | 02:04:51 | 00:00:00 | |
| DL1XH-west | 2026-09-03 00:44:20 | 58.67968 | 7.10877 | 158° | 2km/h | 29661m | 5.1m/s | -44.5°C | 0.1% | 13.2hPa | 2.5V | 18:12:15 | 02:04:50 | 00:00:00 | |
| DM0DOS-11 | 2026-09-03 00:44:13 | 58.67997 | 7.10880 | 179° | 11km/h | 29609m | 6.2m/s | -44.6°C | 2.9% | 13.3hPa | 2.5V | 08:30:00 | 02:04:41 | 00:00:00 | |
| DL1XH1-15 | 2026-09-03 00:44:11 | 58.68000 | 7.10879 | 153° | 13km/h | 29603m | 5.9m/s | -44.6°C | 2.9% | 13.2hPa | 2.5V | 08:30:00 | 02:04:40 | 00:00:00 | |
| DL1XH-west | 2026-09-03 00:44:09 | 58.68002 | 7.10875 | 136° | 13km/h | 29597m | 5.5m/s | -44.6°C | 0.1% | 13.3hPa | 2.5V | 18:12:15 | 02:04:39 | 00:00:00 | |
| DM0DOS-11 | 2026-09-03 00:44:02 | 58.68021 | 7.10834 | 159° | 16km/h | 29551m | 6.2m/s | -44.7°C | 3% | 13.4hPa | 2.5V | 08:30:00 | 02:04:31 | 00:00:00 | |
| DL1XH1-15 | 2026-09-03 00:44:01 | 58.68024 | 7.10832 | 179° | 15km/h | 29545m | 5.8m/s | -44.7°C | 2.9% | 13.4hPa | 2.5V | 08:30:00 | 02:04:30 | 00:00:00 | |
| DL1XH-west | 2026-09-03 00:43:58 | 58.68032 | 7.10833 | 182° | 15km/h | 29534m | 6.2m/s | -44.7°C | 0.2% | 13.4hPa | 2.5V | 18:12:15 | 02:04:28 | 00:00:00 | |
| DL1XH1-15 | 2026-09-03 00:43:51 | 58.68034 | 7.10790 | 94° | 18km/h | 29487m | 5.9m/s | -44.9°C | 2.9% | 13.5hPa | 2.4V | 08:30:00 | 02:04:20 | 00:00:00 | |
| DL1XH-west | 2026-09-03 00:43:48 | 58.68037 | 7.10773 | 120° | 16km/h | 29476m | 5.4m/s | -44.9°C | 0.1% | 13.5hPa | 2.5V | 18:12:15 | 02:04:18 | 00:00:00 | |
| AA1-15 | 2026-09-03 00:43:42 | 58.68044 | 7.10748 | 83° | 13km/h | 29442m | 5.9m/s | 0°C | 0% | 0hPa | 2.5V | 18:12:15 | 02:04:12 | 00:00:00 | |
| DL1XH1-15 | 2026-09-03 00:43:41 | 58.68042 | 7.10733 | 66° | 18km/h | 29430m | 5.5m/s | -45.2°C | 3.1% | 13.6hPa | 2.5V | 08:30:00 | 02:04:10 | 00:00:00 | |
| DL1XH-west | 2026-09-03 00:43:37 | 58.68036 | 7.10716 | 54° | 9km/h | 29413m | 4.4m/s | -45.3°C | 0.3% | 13.7hPa | 2.5V | 18:12:15 | 02:04:07 | 00:00:00 | |
| DL1XH1-15 | 2026-09-03 00:43:31 | 58.68047 | 7.10703 | 181° | 7km/h | 29374m | 4.6m/s | -45.5°C | 3.1% | 13.7hPa | 2.5V | 08:30:00 | 02:04:00 | 00:00:00 | |
| DL1XH-west | 2026-09-03 00:43:27 | 58.68049 | 7.10693 | 88° | 13km/h | 29356m | 5.4m/s | -45.5°C | 0.3% | 13.8hPa | 2.5V | 18:12:15 | 02:03:57 | 00:00:00 | |
| DL1XH1-15 | 2026-09-03 00:43:21 | 58.68047 | 7.10669 | 175° | 7km/h | 29316m | 5.7m/s | -45.6°C | 3.1% | 13.9hPa | 2.5V | 08:30:00 | 02:03:50 | 00:00:00 | |
| DL1XH-west | 2026-09-03 00:43:17 | 58.68053 | 7.10676 | 229° | 11km/h | 29299m | 4m/s | -45.6°C | 0.2% | 13.9hPa | 2.5V | 18:12:15 | 02:03:47 | 00:00:00 | |
| DJ2DS-15 | 2026-09-03 00:43:13 | 58.68060 | 7.10675 | 118° | 13km/h | 29279m | 4.9m/s | -45.5°C | 0.9% | 13.9hPa | 2.5V | 00:00:00 | 00:00:00 | 00:00:00 | |
| DL1XH1-15 | 2026-09-03 00:43:11 | 58.68065 | 7.10660 | 139° | 9km/h | 29262m | 5.5m/s | -45.4°C | 3.1% | 14hPa | 2.5V | 08:30:00 | 02:03:40 | 00:00:00 | |
| DL1XH-west | 2026-09-03 00:43:06 | 58.68078 | 7.10648 | 142° | 7km/h | 29229m | 5.7m/s | -45.5°C | 0.3% | 14.1hPa | 2.5V | 18:12:15 | 02:03:34 | 00:00:00 | |
| DL1XH1-15 | 2026-09-03 00:43:06 | 58.68080 | 7.10637 | 111° | 13km/h | 29209m | 6m/s | -45.6°C | 3.1% | 14.1hPa | 2.5V | 08:30:00 | 02:03:30 | 00:00:00 | |
| DL1XH-west | 2026-09-03 00:42:56 | 58.68100 | 7.10578 | 122° | 20km/h | 29169m | 6.3m/s | -45.5°C | 0.1% | 14.2hPa | 2.5V | 18:12:15 | 02:03:23 | 00:00:00 | |
| DL1XH1-15 | 2026-09-03 00:42:55 | 58.68106 | 7.10555 | 105° | 13km/h | 29153m | 6m/s | -45.5°C | 3.1% | 14.2hPa | 2.5V | 08:30:00 | 02:03:20 | 00:00:00 | |
| DL1XH-west | 2026-09-03 00:42:44 | 58.68117 | 7.10516 | 133° | 27km/h | 29121m | 4.6m/s | -45.8°C | 0.2% | 14.3hPa | 2.5V | 18:12:15 | 02:03:14 | 00:00:00 | |
| DL1XH1-15 | 2026-09-03 00:42:44 | 58.68131 | 7.10481 | 116° | 18km/h | 29100m | 5.2m/s | -45.9°C | 3.1% | 14.3hPa | 2.5V | 08:30:00 | 02:03:10 | 00:00:00 | |
| DL1XH-west | 2026-09-03 00:42:34 | 58.68129 | 7.10399 | 83° | 24km/h | 29055m | 5.9m/s | -45.9°C | 0.2% | 14.4hPa | 2.5V | 18:12:15 | 02:03:02 | 00:00:00 | |
| DM0DOS-11 | 2026-09-03 00:42:33 | 58.68133 | 7.10362 | 112° | 27km/h | 29038m | 5.4m/s | -45.9°C | 3.1% | 14.4hPa | 2.5V | 08:30:00 | 02:02:59 | 00:00:00 | |
| DL1XH1-15 | 2026-09-03 00:42:33 | 58.68131 | 7.10375 | 105° | 27km/h | 29044m | 5.2m/s | -45.9°C | 3.1% | 14.4hPa | 2.5V | 08:30:00 | 02:03:00 | 00:00:00 | |
| AA1-15 | 2026-09-03 00:42:24 | 58.68145 | 7.10303 | 109° | 29km/h | 29011m | 5.4m/s | 0°C | 0% | 0hPa | 2.4V | 18:12:15 | 02:02:54 | 00:00:00 | |
| DL1XH1-15 | 2026-09-03 00:42:22 | 58.68146 | 7.10251 | 76° | 26km/h | 28988m | 5.2m/s | -46.1°C | 3.2% | 14.6hPa | 2.5V | 08:30:00 | 02:02:50 | 00:00:00 | |
| DL1XH-west | 2026-09-03 00:42:21 | 58.68145 | 7.10238 | 74° | 27km/h | 28983m | 5.2m/s | -46.1°C | 0.3% | 14.6hPa | 2.5V | 18:12:15 | 02:02:49 | 00:00:00 | |
| DM0DOS-11 | 2026-09-03 00:42:21 | 58.68145 | 7.10238 | 73° | 27km/h | 28983m | 5.2m/s | -46.1°C | 3.2% | 14.6hPa | 2.5V | 08:30:00 | 02:02:49 | 00:00:00 | |
| DM0DOS-11 | 2026-09-03 00:42:14 | 58.68154 | 7.10103 | 105° | 27km/h | 28929m | 5.9m/s | -46.5°C | 3.1% | 14.7hPa | 2.5V | 08:30:00 | 02:02:39 | 00:00:00 | |
| DL1XH-west | 2026-09-03 00:42:10 | 58.68151 | 7.10116 | 112° | 31km/h | 28934m | 4.3m/s | -46.4°C | 0.3% | 14.7hPa | 2.5V | 18:12:15 | 02:02:40 | 00:00:00 | |
| DL1XH1-15 | 2026-09-03 00:42:02 | 58.68142 | 7.09987 | 79° | 33km/h | 28879m | 4.8m/s | -46.9°C | 3.2% | 14.8hPa | 2.5V | 08:30:00 | 02:02:30 | 00:00:00 | |
| DL1XH-west | 2026-09-03 00:42:00 | 58.68141 | 7.09971 | 87° | 33km/h | 28874m | 5.3m/s | -46.9°C | 0.3% | 14.8hPa | 2.5V | 18:12:15 | 02:02:29 | 00:00:00 | |
| AA1-15 | 2026-09-03 00:41:55 | 58.68150 | 7.09914 | 119° | 26km/h | 28852m | 5.4m/s | 0°C | 0% | 0hPa | 2.5V | 18:12:15 | 02:02:25 | 00:00:00 | |
| DM0DOS-11 | 2026-09-03 00:41:54 | 58.68145 | 7.09838 | 69° | 27km/h | 28809m | 6.3m/s | -47.6°C | 3.3% | 15hPa | 2.5V | 08:30:00 | 02:02:17 | 00:00:00 | |
| DL1XH1-15 | 2026-09-03 00:41:51 | 58.68151 | 7.09873 | 74° | 20km/h | 28824m | 5.5m/s | -47.4°C | 3.3% | 14.9hPa | 2.5V | 08:30:00 | 02:02:20 | 00:00:00 | |
| DL1XH-west | 2026-09-03 00:41:49 | 58.68145 | 7.09838 | 70° | 27km/h | 28809m | 6.4m/s | -47.6°C | 0.4% | 15hPa | 2.5V | 18:12:15 | 02:02:17 | 00:00:00 | |
| DL1XH1-15 | 2026-09-03 00:41:46 | 58.68136 | 7.09759 | 82° | 16km/h | 28770m | 6.3m/s | -48.1°C | 3.5% | 15hPa | 2.5V | 08:30:00 | 02:02:10 | 00:00:00 | |
| AA1-15 | 2026-09-03 00:41:44 | 58.68138 | 7.09801 | 74° | 27km/h | 28792m | 6.1m/s | 0°C | 0% | 0hPa | 2.5V | 18:12:15 | 02:02:14 | 00:00:00 | |
| DM0DOS-11 | 2026-09-03 00:41:42 | 58.68132 | 7.09742 | 55° | 15km/h | 28754m | 5.2m/s | -48.1°C | 3.4% | 15.1hPa | 2.5V | 08:30:00 | 02:02:07 | 00:00:00 | |
| DL1XH-west | 2026-09-03 00:41:39 | 58.68134 | 7.09747 | 53° | 13km/h | 28759m | 4.9m/s | -48.1°C | 0.4% | 15.1hPa | 2.5V | 18:12:15 | 02:02:08 | 00:00:00 | |
| DM0DOS-11 | 2026-09-03 00:41:32 | 58.68110 | 7.09645 | 42° | 16km/h | 28686m | 5.5m/s | -48.2°C | 3.5% | 15.2hPa | 2.5V | 08:30:00 | 02:01:55 | 00:00:00 | |
| AA1-15 | 2026-09-03 00:41:32 | 58.68124 | 7.09701 | 64° | 18km/h | 28726m | 6.1m/s | 0°C | 0% | 0hPa | 2.5V | 18:12:15 | 02:02:02 | 00:00:00 | |
| DL1XH1-15 | 2026-09-03 00:41:30 | 58.68110 | 7.09645 | 42° | 16km/h | 28686m | 5.5m/s | -48.2°C | 3.5% | 15.2hPa | 2.5V | 08:30:00 | 02:01:55 | 00:00:00 | |
| DL1XH-west | 2026-09-03 00:41:28 | 58.68116 | 7.09668 | 75° | 20km/h | 28702m | 5m/s | -48.2°C | 0.5% | 15.2hPa | 2.5V | 18:12:15 | 02:01:58 | 00:00:00 | |
| AA1-15 | 2026-09-03 00:41:21 | 58.68098 | 7.09622 | 55° | 16km/h | 28664m | 4.4m/s | 0°C | 0% | 0hPa | 2.4V | 18:12:15 | 02:01:51 | 00:00:00 | |
| DM0DOS-11 | 2026-09-03 00:41:20 | 58.68084 | 7.09597 | 61° | 9km/h | 28630m | 6.6m/s | -48.2°C | 3.5% | 15.3hPa | 2.5V | 08:30:00 | 02:01:45 | 00:00:00 | |
| DL1XH-west | 2026-09-03 00:41:18 | 58.68088 | 7.09603 | 25° | 13km/h | 28641m | 5m/s | -48.2°C | 0.5% | 15.3hPa | 2.5V | 18:12:15 | 02:01:47 | 00:00:00 | |
| AA1-15 | 2026-09-03 00:41:11 | 58.68082 | 7.09580 | 48° | 7km/h | 28608m | 5.7m/s | 0°C | 0% | 0hPa | 2.5V | 18:12:15 | 02:01:41 | 00:00:00 | |
| DM0DOS-11 | 2026-09-03 00:41:09 | 58.68070 | 7.09559 | 59° | 5km/h | 28576m | 5.7m/s | -48.1°C | 3.4% | 15.5hPa | 2.5V | 08:30:00 | 02:01:35 | 00:00:00 | |
| DL1XH-west | 2026-09-03 00:41:06 | 58.68071 | 7.09562 | 57° | 11km/h | 28582m | 4.9m/s | -48.1°C | 0.5% | 15.5hPa | 2.5V | 18:12:15 | 02:01:36 | 00:00:00 | |
| DM0DOS-11 | 2026-09-03 00:40:59 | 58.68058 | 7.09528 | 32° | 27km/h | 28520m | 4.9m/s | -48.3°C | 3.5% | 15.6hPa | 2.5V | 08:30:00 | 02:01:25 | 00:00:00 | |
| DL1XH-west | 2026-09-03 00:40:55 | 58.68058 | 7.09528 | 32° | 27km/h | 28520m | 4.9m/s | -48.3°C | 0.5% | 15.6hPa | 2.5V | 18:12:15 | 02:01:25 | 00:00:00 | |
| DJ2DS-15 | 2026-09-03 00:40:49 | 58.68035 | 7.09492 | 18° | 7km/h | 28485m | 5.2m/s | -48.3°C | 1.0% | 15.7hPa | 2.5V | 00:00:00 | 00:00:00 | 00:00:00 | |
| DM0DOS-11 | 2026-09-03 00:40:48 | 58.68032 | 7.09484 | 77° | 9km/h | 28462m | 5.5m/s | -48.3°C | 3.6% | 15.8hPa | 2.5V | 08:30:00 | 02:01:15 | 00:00:00 | |
| DL1XH-west | 2026-09-03 00:40:45 | 58.68032 | 7.09484 | 78° | 9km/h | 28462m | 5.5m/s | -48.3°C | 0.6% | 15.8hPa | 2.5V | 18:12:15 | 02:01:15 | 00:00:00 | |
| DL1XH1-15 | 2026-09-03 00:40:40 | 58.68007 | 7.09437 | 54° | 7km/h | 28404m | 5.1m/s | -48.1°C | 3.5% | 15.9hPa | 2.5V | 08:30:00 | 02:01:05 | 00:00:00 | |
| DM0DOS-11 | 2026-09-03 00:40:37 | 58.68006 | 7.09434 | 61° | 7km/h | 28399m | 5.3m/s | -48.1°C | 3.4% | 15.9hPa | 2.5V | 08:30:00 | 02:01:04 | 00:00:00 | |
| DL1XH-west | 2026-09-03 00:40:34 | 58.68006 | 7.09434 | 62° | 7km/h | 28399m | 5.3m/s | -48.1°C | 0.4% | 15.9hPa | 2.5V | 18:12:15 | 02:01:04 | 00:00:00 | |
| DL1XH1-15 | 2026-09-03 00:40:30 | 58.67977 | 7.09371 | 47° | 16km/h | 28340m | 5.4m/s | -48.2°C | 3.5% | 16.1hPa | 2.5V | 08:30:00 | 02:00:54 | 00:00:00 | |
| DM0DOS-11 | 2026-09-03 00:40:26 | 58.67977 | 7.09371 | 47° | 16km/h | 28340m | 5.4m/s | -48.2°C | 3.5% | 16.1hPa | 2.5V | 08:30:00 | 02:00:54 | 00:00:00 | |
| DL1XH-west | 2026-09-03 00:40:23 | 58.67974 | 7.09366 | 45° | 13km/h | 28335m | 5.1m/s | -48.2°C | 0.5% | 16.1hPa | 2.5V | 18:12:15 | 02:00:53 | 00:00:00 | |
| DM0DOS-11 | 2026-09-03 00:40:16 | 58.67944 | 7.09322 | 29° | 20km/h | 28281m | 5.9m/s | -48.3°C | 3.4% | 16.2hPa | 2.5V | 08:30:00 | 02:00:44 | 00:00:00 | |
| DL1XH-west | 2026-09-03 00:40:13 | 58.67940 | 7.09318 | 29° | 18km/h | 28276m | 5.4m/s | -48.3°C | 0.5% | 16.2hPa | 2.5V | 18:12:15 | 02:00:43 | 00:00:00 | |
| DM0DOS-11 | 2026-09-03 00:40:09 | 58.67913 | 7.09284 | 27° | 16km/h | 28216m | 6.6m/s | -48.5°C | 3.5% | 16.4hPa | 2.5V | 08:30:00 | 02:00:33 | 00:00:00 | |
| DL1XH1-15 | 2026-09-03 00:40:08 | 58.67913 | 7.09284 | 27° | 16km/h | 28216m | 6.6m/s | -48.5°C | 3.5% | 16.4hPa | 2.5V | 08:30:00 | 02:00:33 | 00:00:00 | |
| DL1XH-west | 2026-09-03 00:40:02 | 58.67909 | 7.09281 | 17° | 18km/h | 28210m | 6m/s | -48.5°C | 0.5% | 16.4hPa | 2.5V | 18:12:15 | 02:00:32 | 00:00:00 | |
| DM0DOS-11 | 2026-09-03 00:39:58 | 58.67893 | 7.09262 | 321° | 4km/h | 28164m | 5.3m/s | -49°C | 3.6% | 16.5hPa | 2.5V | 08:30:00 | 02:00:24 | 00:00:00 | |
| DL1XH1-15 | 2026-09-03 00:39:57 | 58.67892 | 7.09263 | 326° | 4km/h | 28158m | 5.5m/s | -49°C | 3.7% | 16.5hPa | 2.5V | 08:30:00 | 02:00:23 | 00:00:00 | |
| DL1XH-west | 2026-09-03 00:39:53 | 58.67890 | 7.09263 | 16° | 7km/h | 28146m | 5.3m/s | -48.9°C | 0.5% | 16.6hPa | 2.5V | 18:12:15 | 02:00:21 | 00:00:00 | |
| DM0DOS-11 | 2026-09-03 00:39:46 | 58.67862 | 7.09257 | 29° | 15km/h | 28105m | 5.8m/s | -48.8°C | 3.6% | 16.6hPa | 2.5V | 08:30:00 | 02:00:14 | 00:00:00 | |
| DL1XH1-15 | 2026-09-03 00:39:46 | 58.67859 | 7.09254 | 34° | 13km/h | 28099m | 6m/s | -48.8°C | 3.6% | 16.7hPa | 2.5V | 08:30:00 | 02:00:13 | 00:00:00 | |
| DL1XH-west | 2026-09-03 00:39:42 | 58.67857 | 7.09251 | 29° | 9km/h | 28093m | 6m/s | -48.8°C | 0.5% | 16.7hPa | 2.5V | 18:12:15 | 02:00:12 | 00:00:00 | |
| DM0DOS-11 | 2026-09-03 00:39:39 | 58.67837 | 7.09239 | 330° | 18km/h | 28043m | 5.4m/s | -49°C | 0% | 16.8hPa | 2.5V | 08:30:00 | 02:00:03 | 00:00:00 | |
| DL1XH-west | 2026-09-03 00:39:32 | 58.67832 | 7.09244 | 331° | 20km/h | 28037m | 5.6m/s | -49.1°C | 0.5% | 16.8hPa | 2.5V | 18:12:15 | 02:00:02 | 00:00:00 | |
| DL1XH1-15 | 2026-09-03 00:39:25 | 58.67816 | 7.09243 | 115° | 7km/h | 27992m | 6.2m/s | -49.1°C | 3.6% | 17hPa | 2.5V | 08:30:00 | 01:59:54 | 00:00:00 | |
| DL1XH-west | 2026-09-03 00:39:22 | 58.67820 | 7.09229 | 83° | 2km/h | 27968m | 6.5m/s | -49°C | 0.5% | 17hPa | 2.5V | 18:12:15 | 01:59:50 | 00:00:00 | |
| DL1XH-west | 2026-09-03 00:39:10 | 58.67825 | 7.09232 | 163° | 18km/h | 27910m | 6.8m/s | -49.2°C | 0.5% | 17.2hPa | 2.5V | 18:12:15 | 01:59:40 | 00:00:00 | |
| DL1XH1-15 | 2026-09-03 00:39:05 | 58.67842 | 7.09227 | 232° | 4km/h | 27876m | 5.5m/s | -49.1°C | 3.6% | 17.3hPa | 2.5V | 08:30:00 | 01:59:34 | 00:00:00 | |
| DL1XH-west | 2026-09-03 00:39:00 | 58.67849 | 7.09223 | 173° | 9km/h | 27848m | 5.8m/s | -49.2°C | 0.5% | 17.3hPa | 2.5V | 18:12:15 | 01:59:29 | 00:00:00 | |
| DM0DOS-11 | 2026-09-03 00:38:52 | 58.67884 | 7.09203 | 179° | 16km/h | 27793m | 5.9m/s | -49.3°C | 0% | 17.5hPa | 2.4V | 08:30:00 | 01:59:19 | 00:00:00 | |
| DL1XH-west | 2026-09-03 00:38:50 | 58.67880 | 7.09203 | 181° | 18km/h | 27798m | 4.4m/s | -49.3°C | 0.6% | 17.5hPa | 2.5V | 18:12:15 | 01:59:20 | 00:00:00 | |
| DL1XH1-15 | 2026-09-03 00:38:45 | 58.67900 | 7.09194 | 171° | 13km/h | 27764m | 5m/s | -49.4°C | 3.6% | 17.5hPa | 2.5V | 08:30:00 | 01:59:14 | 00:00:00 | |
| DM0DOS-11 | 2026-09-03 00:38:40 | 58.67927 | 7.09167 | 143° | 24km/h | 27732m | 6.2m/s | -49.4°C | 0% | 17.6hPa | 2.5V | 08:30:00 | 01:59:08 | 00:00:00 | |
| DL1XH1-15 | 2026-09-03 00:38:40 | 58.67946 | 7.09147 | 154° | 22km/h | 27709m | 6.5m/s | -49.6°C | 3.8% | 17.7hPa | 2.5V | 08:30:00 | 01:59:04 | 00:00:00 | |
| DL1XH-west | 2026-09-03 00:38:39 | 58.67922 | 7.09174 | 140° | 26km/h | 27738m | 5.3m/s | -49.4°C | 0.6% | 17.6hPa | 2.5V | 18:12:15 | 01:59:09 | 00:00:00 | |
| DM0DOS-11 | 2026-09-03 00:38:33 | 58.67981 | 7.09131 | 162° | 22km/h | 27673m | 5.4m/s | 0°C | 0% | 0hPa | 2.5V | 00:00:00 | 01:58:57 | 00:00:00 | |
| DL1XH1-15 | 2026-09-03 00:38:29 | 58.67998 | 7.09107 | 134° | 33km/h | 27656m | 5.5m/s | -49.5°C | 3.7% | 17.9hPa | 2.5V | 08:30:00 | 01:58:54 | 00:00:00 | |
| DL1XH-west | 2026-09-03 00:38:28 | 58.67981 | 7.09131 | 162° | 22km/h | 27674m | 5.4m/s | -49.5°C | 0.6% | 17.8hPa | 2.5V | 18:12:15 | 01:58:57 | 00:00:00 | |
| DJ2DS-15 | 2026-09-03 00:38:25 | 58.67992 | 7.09118 | 140° | 29km/h | 27662m | 5.8m/s | -49.5°C | 1.0% | 17.9hPa | 2.5V | 00:00:00 | 00:00:00 | 00:00:00 | |
| DM0DOS-11 | 2026-09-03 00:38:22 | 58.68025 | 7.09047 | 140° | 24km/h | 27621m | 4.7m/s | 0°C | 0% | 0hPa | 2.5V | 00:00:00 | 01:58:48 | 00:00:00 | |
| DL1XH1-15 | 2026-09-03 00:38:19 | 58.68046 | 7.09020 | 141° | 24km/h | 27592m | 5.7m/s | -49.4°C | 3.6% | 18hPa | 2.5V | 08:30:00 | 01:58:43 | 00:00:00 | |
| DL1XH-west | 2026-09-03 00:38:17 | 58.68030 | 7.09040 | 145° | 22km/h | 27615m | 6.1m/s | -49.4°C | 0.4% | 18hPa | 2.5V | 18:12:15 | 01:58:47 | 00:00:00 | |
| DM0DOS-11 | 2026-09-03 00:38:10 | 58.68069 | 7.08975 | 132° | 27km/h | 27567m | 4.4m/s | 0°C | 0% | 0hPa | 2.5V | 00:00:00 | 01:58:38 | 00:00:00 | |
| DL1XH1-15 | 2026-09-03 00:38:07 | 58.68091 | 7.08923 | 124° | 20km/h | 27539m | 6.4m/s | -49.5°C | 3.7% | 18.2hPa | 2.5V | 08:30:00 | 01:58:33 | 00:00:00 | |
| DL1XH-west | 2026-09-03 00:38:07 | 58.68074 | 7.08965 | 132° | 29km/h | 27562m | 6.2m/s | -49.4°C | 0.5% | 18.1hPa | 2.5V | 18:12:15 | 01:58:37 | 00:00:00 | |
| DM0DOS-11 | 2026-09-03 00:38:04 | 58.68100 | 7.08891 | 128° | 16km/h | 27505m | 5.5m/s | 0°C | 0% | 0hPa | 2.5V | 00:00:00 | 01:58:27 | 00:00:00 | |
| DL1XH-west | 2026-09-03 00:37:56 | 58.68102 | 7.08884 | 128° | 18km/h | 27499m | 6.2m/s | -49.5°C | 0.6% | 18.3hPa | 2.5V | 18:12:15 | 01:58:26 | 00:00:00 | |
| DL1XH1-15 | 2026-09-03 00:37:54 | 58.68113 | 7.08860 | 131° | 27km/h | 27483m | 6.5m/s | -49.5°C | 3.6% | 18.3hPa | 2.5V | 08:30:00 | 01:58:23 | 00:00:00 | |
| DM0DOS-11 | 2026-09-03 00:37:51 | 58.68128 | 7.08819 | 91° | 11km/h | 27456m | 4.6m/s | 0°C | 0% | 0hPa | 2.5V | 00:00:00 | 01:58:18 | 00:00:00 | |
| DL1XH-west | 2026-09-03 00:37:46 | 58.68129 | 7.08802 | 108° | 15km/h | 27439m | 5.4m/s | -49.7°C | 0.6% | 18.5hPa | 2.5V | 18:12:15 | 01:58:15 | 00:00:00 | |
| DL1XH1-15 | 2026-09-03 00:37:37 | 58.68153 | 7.08728 | 105° | 13km/h | 27382m | 5m/s | -49.7°C | 3.7% | 18.6hPa | 2.6V | 08:30:00 | 01:58:05 | 00:00:00 | |
| DL1XH-west | 2026-09-03 00:37:35 | 58.68153 | 7.08722 | 94° | 13km/h | 27377m | 5.1m/s | -49.7°C | 0.6% | 18.6hPa | 2.6V | 18:12:15 | 01:58:04 | 00:00:00 | |
| DL1XH1-15 | 2026-09-03 00:37:29 | 58.68162 | 7.08660 | 120° | 20km/h | 27326m | 5.4m/s | -49.6°C | 3.7% | 18.8hPa | 2.4V | 08:30:00 | 01:57:55 | 00:00:00 | |
| DL1XH-west | 2026-09-03 00:37:24 | 58.68165 | 7.08652 | 124° | 20km/h | 27321m | 5.1m/s | -49.6°C | 0.5% | 18.8hPa | 2.6V | 18:12:15 | 01:57:54 | 00:00:00 | |
| DL1XH1-15 | 2026-09-03 00:37:17 | 58.68180 | 7.08611 | 112° | 9km/h | 27271m | 6.5m/s | -49.6°C | 3.7% | 18.9hPa | 2.5V | 08:30:00 | 01:57:45 | 00:00:00 | |
| DL1XH-west | 2026-09-03 00:37:15 | 58.68181 | 7.08603 | 90° | 11km/h | 27261m | 5.2m/s | -49.6°C | 0.7% | 19hPa | 2.5V | 18:12:15 | 01:57:43 | 00:00:00 | |
| DJ2DS-15 | 2026-09-03 00:37:13 | 58.68181 | 7.08597 | 95° | 13km/h | 27255m | 6.0m/s | -49.6°C | 1.0% | 19.0hPa | 2.5V | 00:00:00 | 00:00:00 | 00:00:00 | |
| DL1XH1-15 | 2026-09-03 00:37:09 | 58.68193 | 7.08571 | 176° | 5km/h | 27216m | 6.3m/s | -49.6°C | 3.7% | 19.1hPa | 2.5V | 08:30:00 | 01:57:35 | 00:00:00 | |
| DL1XH-west | 2026-09-03 00:37:03 | 58.68195 | 7.08568 | 112° | 7km/h | 27204m | 5.2m/s | -49.7°C | 0.6% | 19.1hPa | 2.5V | 18:12:15 | 01:57:33 | 00:00:00 | |
| DL1XH1-15 | 2026-09-03 00:36:56 | 58.68201 | 7.08534 | 160° | 11km/h | 27159m | 6.2m/s | -49.9°C | 3.7% | 19.3hPa | 2.5V | 08:30:00 | 01:57:25 | 00:00:00 | |
| DL1XH-west | 2026-09-03 00:36:53 | 58.68210 | 7.08535 | 180° | 13km/h | 27142m | 5.9m/s | -50°C | 0.6% | 19.3hPa | 2.5V | 18:12:15 | 01:57:22 | 00:00:00 | |
| DL1XH1-15 | 2026-09-03 00:36:49 | 58.68216 | 7.08514 | 89° | 9km/h | 27103m | 6.5m/s | -50.1°C | 3.8% | 19.4hPa | 2.5V | 08:30:00 | 01:57:15 | 00:00:00 | |
| DL1XH-west | 2026-09-03 00:36:43 | 58.68219 | 7.08497 | 124° | 13km/h | 27086m | 5.7m/s | -50.1°C | 0.6% | 19.5hPa | 2.5V | 18:12:15 | 01:57:12 | 00:00:00 | |
| DL1XH1-15 | 2026-09-03 00:36:36 | 58.68232 | 7.08466 | 101° | 7km/h | 27040m | 5.7m/s | -50.1°C | 3.8% | 19.6hPa | 2.5V | 08:30:00 | 01:57:04 | 00:00:00 | |
| DL1XH-west | 2026-09-03 00:36:32 | 58.68233 | 7.08452 | 94° | 13km/h | 27023m | 5.7m/s | -50°C | 0.7% | 19.7hPa | 2.5V | 18:12:15 | 01:57:01 | 00:00:00 | |
| DL1XH-west | 2026-09-03 00:36:21 | 58.68248 | 7.08404 | 86° | 7km/h | 26967m | 6.3m/s | -50°C | 0.7% | 19.8hPa | 2.5V | 18:12:15 | 01:56:51 | 00:00:00 | |
| DL1XH1-15 | 2026-09-03 00:36:17 | 58.68269 | 7.08384 | 126° | 11km/h | 26909m | 5.3m/s | -50.3°C | 3.9% | 20hPa | 2.5V | 08:30:00 | 01:56:41 | 00:00:00 | |
| DL1XH-west | 2026-09-03 00:36:12 | 58.68271 | 7.08375 | 103° | 7km/h | 26898m | 6.4m/s | -50.3°C | 0.7% | 20.1hPa | 2.5V | 18:12:15 | 01:56:39 | 00:00:00 | |
| DL1XH1-15 | 2026-09-03 00:36:06 | 58.68274 | 7.08356 | 174° | 11km/h | 26853m | 5.1m/s | -50.1°C | 3.8% | 20.2hPa | 2.5V | 08:30:00 | 01:56:31 | 00:00:00 | |
| DL1XH-west | 2026-09-03 00:36:01 | 58.68274 | 7.08356 | 175° | 11km/h | 26853m | 5.1m/s | -50.2°C | 0.6% | 20.2hPa | 2.5V | 18:12:15 | 01:56:31 | 00:00:00 | |
| DL1XH-west | 2026-09-03 00:35:50 | 58.68284 | 7.08335 | 176° | 9km/h | 26791m | 6.4m/s | -50°C | 0.7% | 20.4hPa | 2.5V | 18:12:15 | 01:56:20 | 00:00:00 | |
| DL1XH-west | 2026-09-03 00:35:40 | 58.68308 | 7.08347 | 209° | 5km/h | 26734m | 5.2m/s | -49.8°C | 0.7% | 20.6hPa | 2.5V | 18:12:15 | 01:56:10 | 00:00:00 | |
| DL1XH1-15 | 2026-09-03 00:35:34 | 58.68352 | 7.08348 | 199° | 15km/h | 26672m | 6.7m/s | -49.5°C | 3.9% | 20.8hPa | 2.5V | 08:30:00 | 01:55:59 | 00:00:00 | |
| DL1XH-west | 2026-09-03 00:35:30 | 58.68349 | 7.08346 | 187° | 15km/h | 26678m | 4.8m/s | -49.6°C | 0.7% | 20.8hPa | 2.5V | 18:12:15 | 01:56:00 | 00:00:00 | |
| DL1XH1-15 | 2026-09-03 00:35:23 | 58.68378 | 7.08351 | 167° | 16km/h | 26615m | 6.4m/s | -49.1°C | 3.7% | 21hPa | 2.5V | 08:30:00 | 01:55:49 | 00:00:00 | |
| DL1XH-west | 2026-09-03 00:35:19 | 58.68378 | 7.08351 | 167° | 18km/h | 26615m | 6.4m/s | -49.1°C | 0.6% | 21hPa | 2.5V | 18:12:15 | 01:55:49 | 00:00:00 | |
| DL1XH1-15 | 2026-09-03 00:35:10 | 58.68425 | 7.08339 | 155° | 18km/h | 26539m | 7.2m/s | -49.1°C | 3.6% | 21.2hPa | 2.5V | 08:30:00 | 01:55:36 | 00:00:00 | |
| DL1XH-west | 2026-09-03 00:35:09 | 58.68414 | 7.08344 | 177° | 13km/h | 26556m | 5.5m/s | -49°C | 0.6% | 21.2hPa | 2.5V | 18:12:15 | 01:55:39 | 00:00:00 | |
| DL1XH-west | 2026-09-03 00:34:59 | 58.68463 | 7.08312 | 162° | 22km/h | 26500m | 6.6m/s | -49°C | 0.7% | 21.3hPa | 2.5V | 18:12:15 | 01:55:29 | 00:00:00 | |
| DL1XH-west | 2026-09-03 00:34:49 | 58.68494 | 7.08270 | 168° | 20km/h | 26440m | 5.1m/s | -48.9°C | 0.6% | 21.6hPa | 2.5V | 18:12:15 | 01:55:19 | 00:00:00 | |
| DJ2DS-15 | 2026-09-03 00:34:48 | 58.68499 | 7.08268 | 169° | 22km/h | 26436m | 4.4m/s | -48.9°C | 1.0% | 21.5hPa | 2.5V | 00:00:00 | 00:00:00 | 00:00:00 | |
| DL1XH1-15 | 2026-09-03 00:34:45 | 58.68521 | 7.08248 | 146° | 11km/h | 26407m | 5.8m/s | -48.9°C | 3.5% | 21.6hPa | 2.5V | 08:30:00 | 01:55:13 | 00:00:00 | |
| DL1XH-west | 2026-09-03 00:34:38 | 58.68523 | 7.08232 | 127° | 7km/h | 26378m | 5.9m/s | -48.8°C | 0.4% | 21.7hPa | 2.5V | 18:12:15 | 01:55:08 | 00:00:00 | |
| DL1XH-west | 2026-09-03 00:34:26 | 58.68563 | 7.08173 | 101° | 9km/h | 26311m | 5.8m/s | -49°C | 0.4% | 21.9hPa | 2.5V | 18:12:15 | 01:54:56 | 00:00:00 | |
| DL1XH1-15 | 2026-09-03 00:34:21 | 58.68605 | 7.08086 | 124° | 35km/h | 26255m | 4.8m/s | -49.4°C | 3.6% | 22.1hPa | 2.5V | 08:30:00 | 01:54:46 | 00:00:00 | |
| DL1XH-west | 2026-09-03 00:34:15 | 58.68610 | 7.08073 | 115° | 31km/h | 26249m | 6.6m/s | -49.4°C | 0.6% | 22.2hPa | 2.5V | 18:12:15 | 01:54:45 | 00:00:00 | |
| DL1XH-west | 2026-09-03 00:34:04 | 58.68646 | 7.07997 | 149° | 31km/h | 26188m | 5.9m/s | -49.3°C | 0.5% | 22.4hPa | 2.5V | 18:12:15 | 01:54:34 | 00:00:00 | |
| DL1XH-west | 2026-09-03 00:33:54 | 58.68680 | 7.07920 | 140° | 15km/h | 26134m | 5.9m/s | -49.1°C | 0.6% | 22.6hPa | 2.5V | 18:12:15 | 01:54:24 | 00:00:00 | |
| DL1XH1-15 | 2026-09-03 00:33:49 | 58.68723 | 7.07813 | 107° | 27km/h | 26077m | 6.4m/s | -49.2°C | 3.6% | 22.7hPa | 2.5V | 08:30:00 | 01:54:14 | 00:00:00 | |
| DL1XH-west | 2026-09-03 00:33:42 | 58.68727 | 7.07792 | 117° | 20km/h | 26065m | 5.3m/s | -49.1°C | 0.5% | 22.8hPa | 2.6V | 18:12:15 | 01:54:12 | 00:00:00 | |
| DL1XH1-15 | 2026-09-03 00:33:35 | 58.68755 | 7.07688 | 107° | 38km/h | 26013m | 5.3m/s | -49°C | 3.6% | 23hPa | 2.5V | 08:30:00 | 01:54:03 | 00:00:00 | |
| DL1XH-west | 2026-09-03 00:33:31 | 58.68760 | 7.07653 | 104° | 37km/h | 26003m | 5.7m/s | -49.1°C | 0.5% | 23hPa | 2.5V | 18:12:15 | 01:54:01 | 00:00:00 | |
| DL1XH1-15 | 2026-09-03 00:33:18 | 58.68774 | 7.07430 | 90° | 27km/h | 25899m | 4.9m/s | -49.5°C | 3.6% | 23.4hPa | 2.5V | 08:30:00 | 01:53:43 | 00:00:00 | |
| DL1XH-west | 2026-09-03 00:33:16 | 58.68774 | 7.07471 | 92° | 29km/h | 25917m | 5.6m/s | -49.5°C | 0.6% | 23.3hPa | 2.5V | 18:12:15 | 01:53:46 | 00:00:00 | |
| DL1XH-west | 2026-09-03 00:33:06 | 58.68781 | 7.07347 | 88° | 31km/h | 25858m | 5.4m/s | -49.5°C | 0.5% | 23.5hPa | 2.5V | 18:12:15 | 01:53:36 | 00:00:00 | |
| DL1XH1-15 | 2026-09-03 00:33:03 | 58.68780 | 7.07284 | 87° | 35km/h | 25835m | 5.3m/s | -49.5°C | 3.5% | 23.6hPa | 2.6V | 08:30:00 | 01:53:32 | 00:00:00 | |
| DL1XH-west | 2026-09-03 00:32:56 | 58.68779 | 7.07181 | 97° | 24km/h | 25795m | 6m/s | -49.4°C | 0.6% | 23.8hPa | 2.5V | 18:12:15 | 01:53:25 | 00:00:00 | |
| DL1XH1-15 | 2026-09-03 00:32:53 | 58.68778 | 7.07144 | 86° | 26km/h | 25778m | 5.1m/s | -49.5°C | 3.6% | 23.8hPa | 2.6V | 08:30:00 | 01:53:22 | 00:00:00 | |
| DL1XH1-15 | 2026-09-03 00:32:45 | 58.68777 | 7.07015 | 96° | 22km/h | 25720m | 5.9m/s | -49.6°C | 3.7% | 24hPa | 2.6V | 08:30:00 | 01:53:12 | 00:00:00 | |
| DL1XH-west | 2026-09-03 00:32:45 | 58.68775 | 7.07050 | 90° | 29km/h | 25738m | 6.8m/s | -49.6°C | 0.7% | 24hPa | 2.5V | 18:12:15 | 01:53:15 | 00:00:00 | |
| DL1XH-west | 2026-09-03 00:32:35 | 58.68775 | 7.06917 | 87° | 24km/h | 25669m | 5.4m/s | -49.7°C | 0.6% | 24.2hPa | 2.5V | 18:12:15 | 01:53:03 | 00:00:00 | |
| DL1XH1-15 | 2026-09-03 00:32:34 | 58.68775 | 7.06906 | 93° | 22km/h | 25663m | 6.3m/s | -49.7°C | 3.7% | 24.2hPa | 2.6V | 08:30:00 | 01:53:02 | 00:00:00 | |
| DL1XH-west | 2026-09-03 00:32:24 | 58.68768 | 7.06814 | 75° | 24km/h | 25611m | 6.1m/s | -49.8°C | 0.6% | 24.4hPa | 2.5V | 18:12:15 | 01:52:53 | 00:00:00 | |
| DL1XH1-15 | 2026-09-03 00:32:23 | 58.68766 | 7.06803 | 71° | 24km/h | 25606m | 5.1m/s | -49.8°C | 3.7% | 24.5hPa | 2.6V | 08:30:00 | 01:52:52 | 00:00:00 | |
| DL1XH1-15 | 2026-09-03 00:32:13 | 58.68756 | 7.06680 | 85° | 24km/h | 25550m | 5.6m/s | -49.9°C | 3.8% | 24.7hPa | 2.6V | 08:30:00 | 01:52:42 | 00:00:00 | |
| DL1XH-west | 2026-09-03 00:32:13 | 58.68756 | 7.06680 | 85° | 24km/h | 25550m | 5.6m/s | -49.9°C | 0.7% | 24.7hPa | 2.6V | 18:12:15 | 01:52:42 | 00:00:00 | |
| DL1XH-west | 2026-09-03 00:32:03 | 58.68759 | 7.06527 | 83° | 35km/h | 25494m | 5.7m/s | -49.8°C | 0.7% | 24.9hPa | 2.6V | 18:12:15 | 01:52:32 | 00:00:00 | |
| DL1XH1-15 | 2026-09-03 00:32:01 | 58.68752 | 7.06432 | 85° | 29km/h | 25460m | 6.5m/s | -49.7°C | 3.7% | 25hPa | 2.6V | 08:30:00 | 01:52:26 | 00:00:00 | |
| DL1XH-west | 2026-09-03 00:31:52 | 58.68750 | 7.06359 | 84° | 37km/h | 25433m | 5.4m/s | -49.7°C | 0.6% | 25.1hPa | 2.5V | 18:12:15 | 01:52:21 | 00:00:00 | |
| DL1XH1-15 | 2026-09-03 00:31:50 | 58.68740 | 7.06255 | 66° | 37km/h | 25399m | 4.4m/s | -49.5°C | 3.6% | 25.2hPa | 2.5V | 08:30:00 | 01:52:15 | 00:00:00 | |
| DJ2DS-15 | 2026-09-03 00:31:48 | 58.68747 | 7.06306 | 83° | 35km/h | 25416m | 4.7m/s | -49.6°C | 1.0% | 25.2hPa | 2.5V | 00:00:00 | 00:00:00 | 00:00:00 | |
| DL1XH-west | 2026-09-03 00:31:41 | 58.68729 | 7.06183 | 82° | 33km/h | 25373m | 6.2m/s | -49.4°C | 0.6% | 25.4hPa | 2.5V | 18:12:15 | 01:52:10 | 00:00:00 | |
| DL1XH1-15 | 2026-09-03 00:31:40 | 58.68721 | 7.06089 | 78° | 40km/h | 25346m | 5.3m/s | -49.3°C | 3.5% | 25.4hPa | 2.5V | 08:30:00 | 01:52:05 | 00:00:00 | |
| DL1XH1-15 | 2026-09-03 00:31:30 | 58.68699 | 7.05937 | 78° | 35km/h | 25291m | 6.3m/s | -49.9°C | 3.6% | 25.7hPa | 2.5V | 08:30:00 | 01:51:55 | 00:00:00 | |
| DL1XH-west | 2026-09-03 00:31:30 | 58.68705 | 7.05995 | 80° | 26km/h | 25314m | 4.5m/s | -49.6°C | 0.5% | 25.6hPa | 2.5V | 18:12:15 | 01:51:59 | 00:00:00 | |
| DL1XH1-15 | 2026-09-03 00:31:20 | 58.68665 | 7.05776 | 55° | 26km/h | 25237m | 5.5m/s | -50.4°C | 3.8% | 25.9hPa | 2.5V | 08:30:00 | 01:51:45 | 00:00:00 | |
| DL1XH-west | 2026-09-03 00:31:19 | 58.68675 | 7.05811 | 64° | 33km/h | 25253m | 5.2m/s | -50.4°C | 0.5% | 25.8hPa | 2.5V | 18:12:15 | 01:51:48 | 00:00:00 | |
| DJ2DS-15 | 2026-09-03 00:31:12 | 58.68656 | 7.05743 | 70° | 24km/h | 25220m | 4.7m/s | -50.4°C | 1.1% | 25.9hPa | 2.5V | 00:00:00 | 00:00:00 | 00:00:00 | |
| DL1XH1-15 | 2026-09-03 00:31:10 | 58.68628 | 7.05660 | 54° | 29km/h | 25183m | 4.5m/s | -50.7°C | 4% | 26.1hPa | 2.5V | 08:30:00 | 01:51:35 | 00:00:00 | |
| DL1XH-west | 2026-09-03 00:31:09 | 58.68642 | 7.05695 | 50° | 31km/h | 25199m | 4.8m/s | -50.6°C | 0.6% | 26.1hPa | 2.5V | 18:12:15 | 01:51:38 | 00:00:00 | |
| DL1XH1-15 | 2026-09-03 00:30:58 | 58.68571 | 7.05553 | 34° | 26km/h | 25125m | 4.8m/s | -50.7°C | 3.8% | 26.3hPa | 2.5V | 08:30:00 | 01:51:24 | 00:00:00 | |
| DL1XH-west | 2026-09-03 00:30:58 | 58.68587 | 7.05579 | 46° | 26km/h | 25142m | 4.9m/s | -50.7°C | 0.7% | 26.3hPa | 2.6V | 18:12:15 | 01:51:27 | 00:00:00 | |
| DL1XH-west | 2026-09-03 00:30:48 | 58.68543 | 7.05515 | 42° | 20km/h | 25088m | 5m/s | -50.9°C | 0.7% | 26.5hPa | 2.6V | 18:12:15 | 01:51:17 | 00:00:00 | |
| DL1XH1-15 | 2026-09-03 00:30:45 | 58.68535 | 7.05495 | 53° | 16km/h | 25072m | 4.3m/s | -50.9°C | 3.9% | 26.6hPa | 2.5V | 08:30:00 | 01:51:14 | 00:00:00 | |
| DL1XH1-15 | 2026-09-03 00:30:39 | 58.68500 | 7.05458 | 10° | 11km/h | 25019m | 4.3m/s | -50.8°C | 4% | 26.8hPa | 2.5V | 08:30:00 | 01:51:04 | 00:00:00 | |
| DL1XH-west | 2026-09-03 00:30:37 | 58.68509 | 7.05461 | 9° | 13km/h | 25036m | 5.1m/s | -50.9°C | 0.7% | 26.7hPa | 2.6V | 18:12:15 | 01:51:07 | 00:00:00 | |
| DJ2DS-15 | 2026-09-03 00:30:36 | 58.68506 | 7.05460 | 9° | 11km/h | 25030m | 6.3m/s | -50.9°C | 1.1% | 26.7hPa | 2.5V | 00:00:00 | 00:00:00 | 00:00:00 | |
| DL1XH1-15 | 2026-09-03 00:30:28 | 58.68486 | 7.05458 | 342° | 4km/h | 24963m | 4.6m/s | -50.6°C | 3.9% | 27hPa | 2.5V | 08:30:00 | 01:50:54 | 00:00:00 | |
| DL1XH-west | 2026-09-03 00:30:27 | 58.68488 | 7.05458 | 13° | 5km/h | 24980m | 5.2m/s | -50.6°C | 0.7% | 26.9hPa | 2.6V | 18:12:15 | 01:50:57 | 00:00:00 | |
| DL1XH1-15 | 2026-09-03 00:30:18 | 58.68478 | 7.05445 | 93° | 7km/h | 24908m | 6.3m/s | -50.7°C | 4% | 27.2hPa | 2.5V | 08:30:00 | 01:50:44 | 00:00:00 | |
| DL1XH-west | 2026-09-03 00:30:17 | 58.68478 | 7.05445 | 93° | 7km/h | 24908m | 6.3m/s | -50.7°C | 0.8% | 27.2hPa | 2.5V | 18:12:15 | 01:50:44 | 00:00:00 | |
| DL1XH1-15 | 2026-09-03 00:30:08 | 58.68483 | 7.05406 | 108° | 9km/h | 24852m | 5.6m/s | -50.3°C | 3.8% | 27.4hPa | 2.5V | 08:30:00 | 01:50:34 | 00:00:00 | |
| DL1XH-west | 2026-09-03 00:30:04 | 58.68483 | 7.05406 | 108° | 9km/h | 24852m | 5.6m/s | -50.3°C | 0.6% | 27.5hPa | 2.5V | 18:12:15 | 01:50:34 | 00:00:00 | |
| DL1XH1-15 | 2026-09-03 00:29:58 | 58.68509 | 7.05365 | 168° | 15km/h | 24794m | 5.6m/s | -50°C | 3.8% | 27.7hPa | 2.5V | 08:30:00 | 01:50:24 | 00:00:00 | |
| DL1XH-west | 2026-09-03 00:29:54 | 58.68513 | 7.05364 | 168° | 13km/h | 24788m | 5.2m/s | -50°C | 0.6% | 27.7hPa | 2.5V | 18:12:15 | 01:50:23 | 00:00:00 | |
| DL1XH1-15 | 2026-09-03 00:29:48 | 58.68542 | 7.05324 | 146° | 22km/h | 24736m | 6m/s | -50.2°C | 3.8% | 27.9hPa | 2.5V | 08:30:00 | 01:50:14 | 00:00:00 | |
| DL1XH-west | 2026-09-03 00:29:44 | 58.68542 | 7.05324 | 147° | 22km/h | 24736m | 6m/s | -50.2°C | 0.6% | 27.9hPa | 2.5V | 18:12:15 | 01:50:14 | 00:00:00 | |
| DL1XH1-15 | 2026-09-03 00:29:38 | 58.68595 | 7.05268 | 135° | 24km/h | 24680m | 6.1m/s | -50.1°C | 3.8% | 28.2hPa | 2.5V | 08:30:00 | 01:50:04 | 00:00:00 | |
| DL1XH-west | 2026-09-03 00:29:34 | 58.68604 | 7.05250 | 135° | 26km/h | 24669m | 6.1m/s | -50.1°C | 0.6% | 28.3hPa | 2.6V | 18:12:15 | 01:50:02 | 00:00:00 | |
| DL1XH1-15 | 2026-09-03 00:29:23 | 58.68656 | 7.05153 | 126° | 27km/h | 24614m | 5.7m/s | -50°C | 3.8% | 28.5hPa | 2.6V | 08:30:00 | 01:49:52 | 00:00:00 | |
| DL1XH-west | 2026-09-03 00:29:22 | 58.68660 | 7.05143 | 122° | 26km/h | 24608m | 5m/s | -50°C | 0.6% | 28.5hPa | 2.6V | 18:12:15 | 01:49:51 | 00:00:00 | |
| DL1XH1-15 | 2026-09-03 00:29:13 | 58.68699 | 7.05066 | 140° | 31km/h | 24560m | 5.1m/s | -49.8°C | 3.6% | 28.7hPa | 2.6V | 08:30:00 | 01:49:42 | 00:00:00 | |
| DL1XH-west | 2026-09-03 00:29:12 | 58.68699 | 7.05066 | 141° | 31km/h | 24560m | 5.1m/s | -49.8°C | 0.5% | 28.7hPa | 2.6V | 18:12:15 | 01:49:42 | 00:00:00 | |
| DL1XH1-15 | 2026-09-03 00:29:03 | 58.68740 | 7.04943 | 108° | 18km/h | 24508m | 4.8m/s | -49.8°C | 3.6% | 28.9hPa | 2.6V | 08:30:00 | 01:49:32 | 00:00:00 | |
| DL1XH-west | 2026-09-03 00:29:02 | 58.68742 | 7.04935 | 120° | 18km/h | 24503m | 6.1m/s | -49.8°C | 0.6% | 29hPa | 2.6V | 18:12:15 | 01:49:31 | 00:00:00 | |
| DL1XH1-15 | 2026-09-03 00:28:53 | 58.68782 | 7.04849 | 113° | 31km/h | 24456m | 6.1m/s | -50°C | 3.7% | 29.2hPa | 2.6V | 08:30:00 | 01:49:22 | 00:00:00 | |
| DL1XH-west | 2026-09-03 00:28:51 | 58.68787 | 7.04798 | 101° | 26km/h | 24435m | 4.8m/s | -50.2°C | 0.6% | 29.3hPa | 2.5V | 18:12:15 | 01:49:18 | 00:00:00 | |
| DJ2DS-15 | 2026-09-03 00:28:48 | 58.68792 | 7.04770 | 119° | 16km/h | 24420m | 5.5m/s | -50.2°C | 1.0% | 29.4hPa | 2.5V | 00:00:00 | 00:00:00 | 00:00:00 | |
| DL1XH-west | 2026-09-03 00:28:38 | 58.68817 | 7.04699 | 117° | 29km/h | 24383m | 4.4m/s | -50.3°C | 0.6% | 29.5hPa | 2.5V | 18:12:15 | 01:49:08 | 00:00:00 | |
| DL1XH-west | 2026-09-03 00:28:28 | 58.68857 | 7.04575 | 119° | 27km/h | 24325m | 5.7m/s | -50.3°C | 0.6% | 29.8hPa | 2.6V | 18:12:15 | 01:48:57 | 00:00:00 | |
| DL1XH1-15 | 2026-09-03 00:28:22 | 58.68882 | 7.04428 | 110° | 24km/h | 24270m | 4.6m/s | -50.2°C | 3.6% | 30hPa | 2.5V | 08:30:00 | 01:48:46 | 00:00:00 | |
| DL1XH-west | 2026-09-03 00:28:17 | 58.68882 | 7.04428 | 110° | 24km/h | 24270m | 4.6m/s | -50.2°C | 0.5% | 30hPa | 2.5V | 18:12:15 | 01:48:46 | 00:00:00 | |
| DL1XH1-15 | 2026-09-03 00:28:11 | 58.68892 | 7.04294 | 84° | 27km/h | 24218m | 6.1m/s | -50.5°C | 3.7% | 30.3hPa | 2.6V | 08:30:00 | 01:48:36 | 00:00:00 | |
| DL1XH-west | 2026-09-03 00:28:06 | 58.68892 | 7.04294 | 84° | 27km/h | 24218m | 6.1m/s | -50.5°C | 0.6% | 30.3hPa | 2.6V | 18:12:15 | 01:48:36 | 00:00:00 | |
| DL1XH1-15 | 2026-09-03 00:28:01 | 58.68876 | 7.04165 | 81° | 29km/h | 24166m | 5m/s | -51°C | 3.8% | 30.5hPa | 2.6V | 08:30:00 | 01:48:26 | 00:00:00 | |
| DL1XH-west | 2026-09-03 00:27:56 | 58.68876 | 7.04165 | 81° | 29km/h | 24166m | 5m/s | -51°C | 0.6% | 30.5hPa | 2.6V | 18:12:15 | 01:48:26 | 00:00:00 | |
| DL1XH1-15 | 2026-09-03 00:27:51 | 58.68866 | 7.04074 | 67° | 13km/h | 24113m | 5m/s | -50.9°C | 3.8% | 30.8hPa | 2.6V | 08:30:00 | 01:48:16 | 00:00:00 | |
| DL1XH-west | 2026-09-03 00:27:46 | 58.68866 | 7.04074 | 68° | 13km/h | 24113m | 5m/s | -50.9°C | 0.6% | 30.8hPa | 2.6V | 18:12:15 | 01:48:16 | 00:00:00 | |
| DL1XH1-15 | 2026-09-03 00:27:41 | 58.68850 | 7.04022 | 30° | 9km/h | 24059m | 6.4m/s | -50.8°C | 3.8% | 31hPa | 2.6V | 08:30:00 | 01:48:06 | 00:00:00 | |
| DL1XH-west | 2026-09-03 00:27:35 | 58.68849 | 7.04020 | 38° | 9km/h | 24054m | 5.4m/s | -50.8°C | 0.8% | 31hPa | 2.5V | 18:12:15 | 01:48:05 | 00:00:00 | |
| DL1XH1-15 | 2026-09-03 00:27:30 | 58.68829 | 7.03974 | 49° | 5km/h | 24001m | 5.2m/s | -50.7°C | 3.9% | 31.3hPa | 2.6V | 08:30:00 | 01:47:55 | 00:00:00 | |
| DL1XH-west | 2026-09-03 00:27:25 | 58.68829 | 7.03973 | 86° | 2km/h | 23996m | 5.7m/s | -50.7°C | 0.6% | 31.3hPa | 2.6V | 18:12:15 | 01:47:54 | 00:00:00 | |
| DL1XH1-15 | 2026-09-03 00:27:18 | 58.68816 | 7.03963 | 9° | 5km/h | 23949m | 5.5m/s | -50.5°C | 3.8% | 31.5hPa | 2.6V | 08:30:00 | 01:47:45 | 00:00:00 | |
| DL1XH-west | 2026-09-03 00:27:14 | 58.68815 | 7.03963 | 358° | 4km/h | 23944m | 5m/s | -50.5°C | 0.6% | 31.6hPa | 2.6V | 18:12:15 | 01:47:44 | 00:00:00 | |
| DL1XH-west | 2026-09-03 00:27:02 | 58.68808 | 7.03972 | 313° | 7km/h | 23880m | 5.1m/s | -50.1°C | 0.6% | 31.9hPa | 2.5V | 18:12:15 | 01:47:32 | 00:00:00 | |
| DL1XH-west | 2026-09-03 00:26:52 | 58.68808 | 7.04009 | 158° | 4km/h | 23827m | 5.6m/s | -49.9°C | 0.5% | 32.2hPa | 2.5V | 18:12:15 | 01:47:22 | 00:00:00 | |
| DL1XH-west | 2026-09-03 00:26:42 | 58.68810 | 7.04027 | 233° | 11km/h | 23769m | 5.2m/s | -49.7°C | 0.4% | 32.4hPa | 2.5V | 18:12:15 | 01:47:11 | 00:00:00 | |
| DL1XH-west | 2026-09-03 00:26:31 | 58.68823 | 7.04030 | 199° | 7km/h | 23716m | 5m/s | -50.1°C | 0.6% | 32.7hPa | 2.5V | 18:12:15 | 01:47:01 | 00:00:00 | |
| DJ2DS-15 | 2026-09-03 00:26:24 | 58.68848 | 7.04054 | 180° | 15km/h | 23675m | 4.4m/s | -50.2°C | 1.1% | 32.9hPa | 2.6V | 00:00:00 | 00:00:00 | 00:00:00 | |
| DL1XH1-15 | 2026-09-03 00:26:23 | 58.68864 | 7.04053 | 182° | 16km/h | 23650m | 5.7m/s | -50.4°C | 3.8% | 33hPa | 2.6V | 08:30:00 | 01:46:48 | 00:00:00 | |
| DL1XH-west | 2026-09-03 00:26:21 | 58.68855 | 7.04053 | 174° | 11km/h | 23664m | 5.6m/s | -50.3°C | 0.6% | 33hPa | 2.5V | 18:12:15 | 01:46:51 | 00:00:00 | |
| DL1XH1-15 | 2026-09-03 00:26:12 | 58.68913 | 7.04022 | 144° | 16km/h | 23593m | 5.5m/s | -50.4°C | 3.7% | 33.3hPa | 2.6V | 08:30:00 | 01:46:37 | 00:00:00 | |
| DL1XH-west | 2026-09-03 00:26:11 | 58.68899 | 7.04039 | 161° | 20km/h | 23613m | 4.4m/s | -50.3°C | 0.6% | 33.2hPa | 2.5V | 18:12:15 | 01:46:41 | 00:00:00 | |
| DL1XH1-15 | 2026-09-03 00:26:01 | 58.68972 | 7.03997 | 133° | 20km/h | 23537m | 5.2m/s | -50.5°C | 3.8% | 33.6hPa | 2.6V | 08:30:00 | 01:46:26 | 00:00:00 | |
| DL1XH-west | 2026-09-03 00:25:59 | 58.68956 | 7.04010 | 171° | 27km/h | 23552m | 3.8m/s | -50.5°C | 0.6% | 33.5hPa | 2.5V | 18:12:15 | 01:46:29 | 00:00:00 | |
| DL1XH1-15 | 2026-09-03 00:25:51 | 58.69018 | 7.03917 | 161° | 27km/h | 23485m | 5.8m/s | -50.5°C | 3.8% | 33.9hPa | 2.6V | 08:30:00 | 01:46:16 | 00:00:00 | |
| DL1XH-west | 2026-09-03 00:25:49 | 58.68998 | 7.03934 | 145° | 27km/h | 23500m | 6.2m/s | -50.5°C | 0.6% | 33.8hPa | 2.5V | 18:12:15 | 01:46:19 | 00:00:00 | |
| DL1XH-west | 2026-09-03 00:25:38 | 58.69050 | 7.03838 | 108° | 22km/h | 23440m | 3.5m/s | -50.6°C | 0.6% | 34.1hPa | 2.5V | 18:12:15 | 01:46:07 | 00:00:00 | |
| DL1XH-west | 2026-09-03 00:25:27 | 58.69092 | 7.03726 | 114° | 35km/h | 23391m | 5.2m/s | -51.1°C | 0.7% | 34.4hPa | 2.5V | 18:12:15 | 01:45:57 | 00:00:00 | |
| DL1XH1-15 | 2026-09-03 00:25:27 | 58.69100 | 7.03646 | 101° | 37km/h | 23364m | 4.8m/s | -51.2°C | 3.9% | 34.5hPa | 2.5V | 08:30:00 | 01:45:52 | 00:00:00 | |
| DL1XH1-15 | 2026-09-03 00:25:17 | 58.69136 | 7.03506 | 101° | 24km/h | 23314m | 4.6m/s | -51.2°C | 3.9% | 34.8hPa | 2.5V | 08:30:00 | 01:45:42 | 00:00:00 | |
| DL1XH-west | 2026-09-03 00:25:17 | 58.69120 | 7.03558 | 126° | 37km/h | 23333m | 4.4m/s | -51.2°C | 0.6% | 34.7hPa | 2.5V | 18:12:15 | 01:45:46 | 00:00:00 | |
| DL1XH1-15 | 2026-09-03 00:25:07 | 58.69149 | 7.03384 | 104° | 33km/h | 23262m | 3.9m/s | -51.4°C | 4% | 35hPa | 2.6V | 08:30:00 | 01:45:32 | 00:00:00 | |
| DL1XH-west | 2026-09-03 00:25:06 | 58.69142 | 7.03424 | 109° | 24km/h | 23278m | 4.6m/s | -51.3°C | 0.7% | 35hPa | 2.5V | 18:12:15 | 01:45:35 | 00:00:00 | |
| DL1XH1-15 | 2026-09-03 00:24:57 | 58.69159 | 7.03264 | 108° | 24km/h | 23213m | 4.5m/s | -51.4°C | 4% | 35.3hPa | 2.6V | 08:30:00 | 01:45:22 | 00:00:00 | |
| DL1XH-west | 2026-09-03 00:24:55 | 58.69156 | 7.03286 | 104° | 26km/h | 23223m | 4.8m/s | -51.4°C | 0.7% | 35.3hPa | 2.5V | 18:12:15 | 01:45:24 | 00:00:00 | |
| DL1XH1-15 | 2026-09-03 00:24:47 | 58.69169 | 7.03134 | 79° | 24km/h | 23161m | 6m/s | -51.5°C | 3.9% | 35.6hPa | 2.5V | 08:30:00 | 01:45:12 | 00:00:00 | |
| DL1XH-west | 2026-09-03 00:24:44 | 58.69170 | 7.03159 | 90° | 27km/h | 23172m | 4.7m/s | -51.4°C | 0.8% | 35.6hPa | 2.5V | 18:12:15 | 01:45:14 | 00:00:00 | |
| DL1XH1-15 | 2026-09-03 00:24:34 | 58.69176 | 7.03012 | 99° | 33km/h | 23111m | 4m/s | -51.4°C | 4% | 35.9hPa | 2.5V | 08:30:00 | 01:45:02 | 00:00:00 | |
| DL1XH-west | 2026-09-03 00:24:34 | 58.69174 | 7.03027 | 107° | 31km/h | 23116m | 5.8m/s | -51.4°C | 0.7% | 35.9hPa | 2.5V | 18:12:15 | 01:45:03 | 00:00:00 | |
| DL1XH-west | 2026-09-03 00:24:23 | 58.69163 | 7.02896 | 83° | 20km/h | 23069m | 5.7m/s | -51.3°C | 0.8% | 36.1hPa | 2.5V | 18:12:15 | 01:44:53 | 00:00:00 | |
| DL1XH1-15 | 2026-09-03 00:24:22 | 58.69164 | 7.02868 | 103° | 24km/h | 23053m | 5m/s | -51.3°C | 4% | 36.2hPa | 2.5V | 08:30:00 | 01:44:50 | 00:00:00 | |
| DL1XH1-15 | 2026-09-03 00:24:14 | 58.69163 | 7.02776 | 61° | 15km/h | 23003m | 4.3m/s | -51.2°C | 4% | 36.5hPa | 2.5V | 08:30:00 | 01:44:40 | 00:00:00 | |
| DL1XH-west | 2026-09-03 00:24:13 | 58.69168 | 7.02799 | 77° | 20km/h | 23019m | 4.4m/s | -51.2°C | 0.8% | 36.4hPa | 2.6V | 18:12:15 | 01:44:43 | 00:00:00 | |
| DL1XH-west | 2026-09-03 00:24:03 | 58.69153 | 7.02721 | 78° | 13km/h | 22968m | 5.2m/s | -51°C | 0.8% | 36.7hPa | 2.6V | 18:12:15 | 01:44:33 | 00:00:00 | |
| DJ2DS-15 | 2026-09-03 00:23:59 | 58.69152 | 7.02697 | 88° | 7km/h | 22949m | 5.2m/s | -51.0°C | 1.1% | 36.8hPa | 2.5V | 00:00:00 | 00:00:00 | 00:00:00 | |
| DL1XH1-15 | 2026-09-03 00:23:54 | 58.69147 | 7.02666 | 64° | 13km/h | 22918m | 5.2m/s | -50.9°C | 4% | 37hPa | 2.5V | 08:30:00 | 01:44:23 | 00:00:00 | |
| DL1XH-west | 2026-09-03 00:23:53 | 58.69148 | 7.02666 | 64° | 13km/h | 22918m | 5.2m/s | -50.9°C | 0.8% | 37hPa | 2.5V | 18:12:15 | 01:44:23 | 00:00:00 | |
| DL1XH1-15 | 2026-09-03 00:23:48 | 58.69135 | 7.02622 | 77° | 5km/h | 22867m | 4.1m/s | -50.5°C | 3.8% | 37.3hPa | 2.5V | 08:30:00 | 01:44:13 | 00:00:00 | |
| DL1XH-west | 2026-09-03 00:23:43 | 58.69135 | 7.02621 | 78° | 5km/h | 22867m | 4.1m/s | -50.5°C | 0.6% | 37.3hPa | 2.5V | 18:12:15 | 01:44:13 | 00:00:00 | |
| DL1XH1-15 | 2026-09-03 00:23:38 | 58.69122 | 7.02591 | 84° | 11km/h | 22815m | 5m/s | -50.3°C | 3.9% | 37.5hPa | 2.6V | 08:30:00 | 01:44:03 | 00:00:00 | |
| DL1XH-west | 2026-09-03 00:23:32 | 58.69123 | 7.02586 | 101° | 7km/h | 22811m | 4.4m/s | -50.2°C | 0.6% | 37.6hPa | 2.5V | 18:12:15 | 01:44:02 | 00:00:00 | |
| DL1XH1-15 | 2026-09-03 00:23:28 | 58.69122 | 7.02574 | 67° | 2km/h | 22765m | 4.2m/s | -50°C | 0% | 37.8hPa | 2.6V | 08:30:00 | 01:43:53 | 00:00:00 | |
| DL1XH-west | 2026-09-03 00:23:21 | 58.69122 | 7.02570 | 106° | 7km/h | 22755m | 5.3m/s | -50°C | 0.6% | 37.9hPa | 2.6V | 18:12:15 | 01:43:51 | 00:00:00 | |
| DL1XH1-15 | 2026-09-03 00:23:18 | 58.69136 | 7.02562 | 153° | 7km/h | 22712m | 5.7m/s | 0°C | 0% | 0hPa | 2.5V | 08:30:00 | 01:43:43 | 00:00:00 | |
| DL1XH-west | 2026-09-03 00:23:11 | 58.69139 | 7.02556 | 105° | 11km/h | 22702m | 6.1m/s | -50.2°C | 0.7% | 38.2hPa | 2.6V | 18:12:15 | 01:43:41 | 00:00:00 | |
| DL1XH1-15 | 2026-09-03 00:23:06 | 58.69140 | 7.02511 | 113° | 9km/h | 22661m | 4.4m/s | 0°C | 0% | 0hPa | 2.5V | 00:00:00 | 01:43:33 | 00:00:00 | |
| DL1XH-west | 2026-09-03 00:23:00 | 58.69143 | 7.02503 | 120° | 5km/h | 22645m | 4.8m/s | -50.1°C | 0.7% | 0hPa | 2.6V | 18:12:15 | 01:43:30 | 00:00:00 | |
| DL1XH1-15 | 2026-09-03 00:22:54 | 58.69147 | 7.02471 | 113° | 15km/h | 22607m | 5m/s | 0°C | 0% | 0hPa | 2.5V | 00:00:00 | 01:43:23 | 00:00:00 | |
| DL1XH-west | 2026-09-03 00:22:50 | 58.69152 | 7.02459 | 141° | 9km/h | 22592m | 4.3m/s | -50°C | 0.7% | 0hPa | 2.5V | 18:12:15 | 01:43:20 | 00:00:00 | |
| DL1XH1-15 | 2026-09-03 00:22:48 | 58.69163 | 7.02433 | 120° | 9km/h | 22555m | 6.1m/s | 0°C | 0% | 0hPa | 2.6V | 00:00:00 | 01:43:13 | 00:00:00 | |
| DJ2DS-15 | 2026-09-03 00:22:47 | 58.69158 | 7.02448 | 121° | 11km/h | 22576m | 4.7m/s | -50.0°C | 1.1% | 39.0hPa | 2.5V | 00:00:00 | 00:00:00 | 00:00:00 | |
| DL1XH-west | 2026-09-03 00:22:39 | 58.69167 | 7.02414 | 101° | 11km/h | 22534m | 4.7m/s | -50°C | 0.6% | 0hPa | 2.5V | 18:12:15 | 01:43:09 | 00:00:00 | |
| DL1XH-west | 2026-09-03 00:22:29 | 58.69175 | 7.02357 | 143° | 13km/h | 22480m | 5.4m/s | -50.1°C | 0.5% | 0hPa | 2.5V | 18:12:15 | 01:42:59 | 00:00:00 | |
| DL1XH1-15 | 2026-09-03 00:22:26 | 58.69184 | 7.02343 | 124° | 16km/h | 22459m | 5.8m/s | 0°C | 0% | 0hPa | 2.6V | 00:00:00 | 01:42:55 | 00:00:00 | |
| DL1XH-west | 2026-09-03 00:22:19 | 58.69194 | 7.02297 | 96° | 15km/h | 22427m | 6.4m/s | 0°C | 0% | 0hPa | 2.5V | 18:12:15 | 01:42:49 | 00:00:00 | |
| DL1XH-west | 2026-09-03 00:22:08 | 58.69214 | 7.02237 | 119° | 18km/h | 22370m | 5.9m/s | 0°C | 0% | 0hPa | 2.6V | 18:12:15 | 01:42:38 | 00:00:00 | |
| DL1XH-west | 2026-09-03 00:21:57 | 58.69229 | 7.02133 | 117° | 31km/h | 22311m | 6m/s | 0°C | 0% | 0hPa | 2.6V | 18:12:15 | 01:42:27 | 00:00:00 | |
| DL1XH-west | 2026-09-03 00:21:46 | 58.69236 | 7.01993 | 107° | 22km/h | 22247m | 6.8m/s | 0°C | 0% | 0hPa | 2.5V | 18:12:15 | 01:42:15 | 00:00:00 | |
| DL1XH-west | 2026-09-03 00:21:36 | 58.69253 | 7.01908 | 95° | 18km/h | 22199m | 5.6m/s | 0°C | 0% | 0hPa | 2.5V | 18:12:15 | 01:42:06 | 00:00:00 | |
| DJ2DS-15 | 2026-09-03 00:20:59 | 58.69316 | 7.01512 | 104° | 24km/h | 22003m | 5.7m/s | -49.6°C | 1.1% | 42.5hPa | 0V | 00:00:00 | 00:00:00 | 00:00:00 | |
| DJ2DS-15 | 2026-09-03 00:16:47 | 58.69155 | 6.98390 | 75° | 20km/h | 20746m | 4.1m/s | -48.3°C | -1.0% | 51.5hPa | 0V | 00:00:00 | 00:00:00 | 00:00:00 |